AEA026 SLVR-LEMD
Flight info
| Callsign | AEA026 |
|---|---|
| Flight time | N/A |
| Altitude | 40000 |
| Route | VIR UL540 VALAS UZ91 LUIZA DCT BEL UZ54 SAPGO DCT 13N040W DCT TUTLO/M084F400 DCT 20N035W 24N030W DCT INSAD/N0479F400 DCT OSLEV/M083F400 DCT 31N020W DCT ABALO/N0476F400 DCT SNT DCT RULET DCT GALPA DCT NARTA DCT MINTA DCT OSLEP DCT OXACA DCT PARKA DCT SOTUK |
| Aircraft | B788/H-SDE1E2E3FGHIJ2J3J4J5M1RWXY/LB1D1 |
Departure
| Time | 2026-04-26 13:42 |
|---|---|
| Airport | Viru Viru International Airport (SLVR) |
Arrival
| Time | N/A |
|---|---|
| Airport | Adolfo Suárez Madrid–Barajas Airport (LEMD) |
| Time | Latitude | Longitude | Altitude | Speed | Heading |
|---|---|---|---|---|---|
| 2026-04-26 13:15 | -17.64757 | -63.13965 | 1237 ft | 0 kts | 237° |
| 2026-04-26 13:31 | -17.64755 | -63.13960 | 1253 ft | 4 kts | 237° |
| 2026-04-26 13:32 | -17.64747 | -63.13947 | 1254 ft | 2 kts | 224° |
| 2026-04-26 13:32 | -17.64727 | -63.13932 | 1249 ft | 4 kts | 210° |
| 2026-04-26 13:32 | -17.64703 | -63.13920 | 1253 ft | 3 kts | 201° |
| 2026-04-26 13:32 | -17.64699 | -63.13918 | 1253 ft | 0 kts | 201° |
| 2026-04-26 13:34 | -17.64700 | -63.13918 | 1253 ft | 1 kts | 201° |
| 2026-04-26 13:34 | -17.64720 | -63.13917 | 1253 ft | 5 kts | 154° |
| 2026-04-26 13:34 | -17.64766 | -63.13876 | 1248 ft | 10 kts | 138° |
| 2026-04-26 13:34 | -17.64802 | -63.13844 | 1253 ft | 10 kts | 142° |
| 2026-04-26 13:35 | -17.64873 | -63.13789 | 1250 ft | 8 kts | 122° |
| 2026-04-26 13:35 | -17.64871 | -63.13737 | 1240 ft | 9 kts | 68° |
| 2026-04-26 13:35 | -17.64827 | -63.13661 | 1253 ft | 12 kts | 55° |
| 2026-04-26 13:35 | -17.64797 | -63.13588 | 1247 ft | 10 kts | 106° |
| 2026-04-26 13:36 | -17.64835 | -63.13533 | 1251 ft | 11 kts | 136° |
| 2026-04-26 13:36 | -17.64906 | -63.13481 | 1245 ft | 13 kts | 147° |
| 2026-04-26 13:36 | -17.64994 | -63.13423 | 1244 ft | 16 kts | 147° |
| 2026-04-26 13:36 | -17.65087 | -63.13361 | 1246 ft | 15 kts | 147° |
| 2026-04-26 13:37 | -17.65173 | -63.13301 | 1250 ft | 14 kts | 148° |
| 2026-04-26 13:37 | -17.65256 | -63.13247 | 1241 ft | 14 kts | 148° |
| 2026-04-26 13:37 | -17.65334 | -63.13195 | 1245 ft | 13 kts | 147° |
| 2026-04-26 13:37 | -17.65414 | -63.13139 | 1252 ft | 17 kts | 146° |
| 2026-04-26 13:38 | -17.65515 | -63.13071 | 1252 ft | 17 kts | 148° |
| 2026-04-26 13:38 | -17.65611 | -63.13007 | 1249 ft | 16 kts | 147° |
| 2026-04-26 13:38 | -17.65703 | -63.12946 | 1251 ft | 15 kts | 147° |
| 2026-04-26 13:38 | -17.65789 | -63.12887 | 1246 ft | 14 kts | 147° |
| 2026-04-26 13:39 | -17.65864 | -63.12827 | 1251 ft | 13 kts | 120° |
| 2026-04-26 13:39 | -17.65856 | -63.12750 | 1251 ft | 9 kts | 58° |
| 2026-04-26 13:39 | -17.65853 | -63.12745 | 1250 ft | 1 kts | 56° |
| 2026-04-26 13:39 | -17.65852 | -63.12744 | 1250 ft | 0 kts | 56° |
| 2026-04-26 13:41 | -17.65832 | -63.12712 | 1253 ft | 9 kts | 56° |
| 2026-04-26 13:41 | -17.65777 | -63.12676 | 1246 ft | 13 kts | 353° |
| 2026-04-26 13:41 | -17.65734 | -63.12695 | 1248 ft | 0 kts | 326° |
| 2026-04-26 13:41 | -17.65733 | -63.12696 | 1248 ft | 2 kts | 326° |
| 2026-04-26 13:42 | -17.65608 | -63.12781 | 1240 ft | 54 kts | 327° |
| 2026-04-26 13:42 | -17.65088 | -63.13134 | 1245 ft | 123 kts | 328° |
| 2026-04-26 13:42 | -17.64193 | -63.13726 | 1413 ft | 169 kts | 330° |
| 2026-04-26 13:42 | -17.63197 | -63.14379 | 2246 ft | 169 kts | 326° |
| 2026-04-26 13:43 | -17.62199 | -63.15030 | 3000 ft | 174 kts | 338° |
| 2026-04-26 13:43 | -17.60878 | -63.14970 | 3315 ft | 213 kts | 18° |
| 2026-04-26 13:43 | -17.59699 | -63.13856 | 3765 ft | 251 kts | 59° |
| 2026-04-26 13:43 | -17.59414 | -63.11970 | 4456 ft | 279 kts | 98° |
| 2026-04-26 13:44 | -17.60301 | -63.10145 | 5420 ft | 290 kts | 134° |
| 2026-04-26 13:44 | -17.62034 | -63.09068 | 6348 ft | 296 kts | 162° |
| 2026-04-26 13:44 | -17.64041 | -63.08492 | 7227 ft | 300 kts | 167° |
| 2026-04-26 13:44 | -17.66036 | -63.07826 | 8101 ft | 304 kts | 158° |
| 2026-04-26 13:45 | -17.67924 | -63.06788 | 9001 ft | 309 kts | 148° |
| 2026-04-26 13:45 | -17.69486 | -63.05248 | 9866 ft | 312 kts | 123° |
| 2026-04-26 13:45 | -17.70649 | -63.03277 | 10373 ft | 330 kts | 120° |
| 2026-04-26 13:45 | -17.71854 | -63.01110 | 10552 ft | 357 kts | 120° |
| 2026-04-26 13:46 | -17.73201 | -62.98847 | 11066 ft | 369 kts | 122° |
| 2026-04-26 13:46 | -17.74599 | -62.96576 | 11926 ft | 371 kts | 122° |
| 2026-04-26 13:46 | -17.75978 | -62.94276 | 12723 ft | 375 kts | 122° |
| 2026-04-26 13:46 | -17.77358 | -62.91934 | 13568 ft | 379 kts | 122° |
| 2026-04-26 13:47 | -17.78759 | -62.89579 | 14310 ft | 383 kts | 122° |
| 2026-04-26 13:47 | -17.80185 | -62.87204 | 15045 ft | 386 kts | 122° |
| 2026-04-26 13:47 | -17.81617 | -62.84808 | 15771 ft | 389 kts | 122° |
| 2026-04-26 13:47 | -17.83058 | -62.82386 | 16472 ft | 393 kts | 122° |
| 2026-04-26 13:48 | -17.84512 | -62.79944 | 17156 ft | 397 kts | 122° |
| 2026-04-26 13:48 | -17.85982 | -62.77479 | 17866 ft | 400 kts | 122° |
| 2026-04-26 13:48 | -17.86961 | -62.75837 | 18336 ft | 402 kts | 122° |
| 2026-04-26 13:48 | -17.88448 | -62.73341 | 18911 ft | 405 kts | 122° |
| 2026-04-26 13:49 | -17.89946 | -62.70823 | 19493 ft | 408 kts | 122° |
| 2026-04-26 13:49 | -17.91454 | -62.68289 | 20091 ft | 411 kts | 122° |
| 2026-04-26 13:49 | -17.92972 | -62.65736 | 20663 ft | 414 kts | 122° |
| 2026-04-26 13:49 | -17.94342 | -62.63354 | 21170 ft | 417 kts | 115° |
| 2026-04-26 13:50 | -17.95268 | -62.60474 | 21746 ft | 418 kts | 98° |
| 2026-04-26 13:50 | -17.95389 | -62.57437 | 22271 ft | 419 kts | 82° |
| 2026-04-26 13:50 | -17.94699 | -62.54464 | 22816 ft | 420 kts | 65° |
| 2026-04-26 13:50 | -17.93264 | -62.51809 | 23343 ft | 420 kts | 50° |
| 2026-04-26 13:51 | -17.91200 | -62.49642 | 23805 ft | 421 kts | 37° |
| 2026-04-26 13:51 | -17.88719 | -62.48019 | 24212 ft | 422 kts | 22° |
| 2026-04-26 13:51 | -17.85933 | -62.46969 | 24567 ft | 426 kts | 15° |
| 2026-04-26 13:51 | -17.83069 | -62.46162 | 24989 ft | 429 kts | 14° |
| 2026-04-26 13:52 | -17.80188 | -62.45338 | 25378 ft | 432 kts | 17° |
| 2026-04-26 13:52 | -17.77332 | -62.44274 | 25788 ft | 436 kts | 21° |
| 2026-04-26 13:52 | -17.74497 | -62.43123 | 26163 ft | 439 kts | 20° |
| 2026-04-26 13:52 | -17.71602 | -62.42070 | 26555 ft | 442 kts | 18° |
| 2026-04-26 13:53 | -17.68671 | -62.41074 | 26944 ft | 444 kts | 18° |
| 2026-04-26 13:53 | -17.65743 | -62.40025 | 27322 ft | 447 kts | 19° |
| 2026-04-26 13:53 | -17.62790 | -62.38920 | 27712 ft | 450 kts | 19° |
| 2026-04-26 13:53 | -17.59825 | -62.37834 | 28077 ft | 453 kts | 19° |
| 2026-04-26 13:54 | -17.56826 | -62.36766 | 28432 ft | 456 kts | 19° |
| 2026-04-26 13:54 | -17.53817 | -62.35688 | 28803 ft | 459 kts | 19° |
| 2026-04-26 13:54 | -17.50794 | -62.34585 | 29140 ft | 461 kts | 19° |
| 2026-04-26 13:55 | -17.44699 | -62.32378 | 29818 ft | 467 kts | 19° |
| 2026-04-26 13:55 | -17.42654 | -62.31643 | 30041 ft | 468 kts | 19° |
| 2026-04-26 13:55 | -17.35416 | -62.29026 | 30698 ft | 474 kts | 19° |
| 2026-04-26 13:56 | -17.32292 | -62.27898 | 30974 ft | 475 kts | 18° |
| 2026-04-26 13:56 | -17.29162 | -62.26770 | 31242 ft | 478 kts | 18° |
| 2026-04-26 13:56 | -17.26028 | -62.25640 | 31332 ft | 476 kts | 18° |
| 2026-04-26 13:57 | -17.19721 | -62.23365 | 31747 ft | 481 kts | 18° |
| 2026-04-26 13:57 | -17.16550 | -62.22223 | 31989 ft | 483 kts | 18° |
| 2026-04-26 13:57 | -17.13366 | -62.21077 | 32249 ft | 485 kts | 18° |
| 2026-04-26 13:57 | -17.10167 | -62.19925 | 32501 ft | 487 kts | 18° |
| 2026-04-26 13:58 | -17.06961 | -62.18770 | 32735 ft | 489 kts | 18° |
| 2026-04-26 13:58 | -17.03728 | -62.17607 | 32952 ft | 491 kts | 18° |
| 2026-04-26 13:58 | -17.00536 | -62.16459 | 33200 ft | 493 kts | 18° |
| 2026-04-26 13:58 | -16.97292 | -62.15293 | 33424 ft | 494 kts | 18° |
| 2026-04-26 13:59 | -16.94040 | -62.14124 | 33682 ft | 495 kts | 18° |
| 2026-04-26 13:59 | -16.90779 | -62.12952 | 34003 ft | 495 kts | 18° |
| 2026-04-26 13:59 | -16.87523 | -62.11783 | 34308 ft | 494 kts | 18° |
| 2026-04-26 14:00 | -16.77988 | -62.07924 | 35293 ft | 490 kts | 32° |
| 2026-04-26 14:00 | -16.75272 | -62.05803 | 35588 ft | 490 kts | 43° |
| 2026-04-26 14:00 | -16.73667 | -62.04064 | 35767 ft | 491 kts | 49° |
| 2026-04-26 14:01 | -16.70748 | -62.00452 | 36087 ft | 491 kts | 49° |
| 2026-04-26 14:01 | -16.68543 | -61.97687 | 36378 ft | 490 kts | 49° |
| 2026-04-26 14:01 | -16.66360 | -61.94957 | 36672 ft | 489 kts | 49° |
| 2026-04-26 14:01 | -16.64171 | -61.92239 | 36947 ft | 488 kts | 48° |
| 2026-04-26 14:02 | -16.61996 | -61.89541 | 37196 ft | 488 kts | 49° |
| 2026-04-26 14:02 | -16.59815 | -61.86825 | 37430 ft | 487 kts | 49° |
| 2026-04-26 14:02 | -16.57642 | -61.84116 | 37691 ft | 487 kts | 49° |
| 2026-04-26 14:02 | -16.55471 | -61.81419 | 37936 ft | 486 kts | 48° |
| 2026-04-26 14:03 | -16.53304 | -61.78729 | 38178 ft | 485 kts | 49° |
| 2026-04-26 14:03 | -16.51146 | -61.76021 | 38421 ft | 485 kts | 49° |
| 2026-04-26 14:03 | -16.48994 | -61.73299 | 38665 ft | 484 kts | 49° |
| 2026-04-26 14:03 | -16.46847 | -61.70600 | 38861 ft | 484 kts | 49° |
| 2026-04-26 14:04 | -16.44694 | -61.67910 | 39048 ft | 484 kts | 49° |
| 2026-04-26 14:04 | -16.42539 | -61.65214 | 39238 ft | 483 kts | 49° |
| 2026-04-26 14:04 | -16.40394 | -61.62519 | 39424 ft | 483 kts | 49° |
| 2026-04-26 14:04 | -16.38253 | -61.59832 | 39584 ft | 483 kts | 49° |
| 2026-04-26 14:05 | -16.36109 | -61.57149 | 39765 ft | 483 kts | 49° |
| 2026-04-26 14:05 | -16.33961 | -61.54463 | 39934 ft | 482 kts | 49° |
| 2026-04-26 14:05 | -16.31812 | -61.51772 | 40022 ft | 484 kts | 49° |
| 2026-04-26 14:06 | -16.27500 | -61.46368 | 40022 ft | 485 kts | 48° |
| 2026-04-26 14:06 | -16.23196 | -61.41003 | 40018 ft | 481 kts | 49° |
| 2026-04-26 14:07 | -16.18922 | -61.35656 | 40014 ft | 480 kts | 48° |
| 2026-04-26 14:07 | -16.14641 | -61.30319 | 40018 ft | 480 kts | 48° |
| 2026-04-26 14:08 | -16.10372 | -61.24992 | 40018 ft | 480 kts | 48° |
| 2026-04-26 14:08 | -16.06096 | -61.19664 | 40020 ft | 480 kts | 48° |
| 2026-04-26 14:09 | -16.01815 | -61.14331 | 40018 ft | 480 kts | 48° |
| 2026-04-26 14:09 | -15.97558 | -61.09035 | 40016 ft | 480 kts | 48° |
| 2026-04-26 14:10 | -15.93275 | -61.03709 | 40016 ft | 480 kts | 48° |
| 2026-04-26 14:10 | -15.88989 | -60.98384 | 40012 ft | 480 kts | 48° |
| 2026-04-26 14:11 | -15.82565 | -60.90409 | 40007 ft | 481 kts | 48° |
| 2026-04-26 14:11 | -15.78261 | -60.85070 | 40009 ft | 481 kts | 48° |
| 2026-04-26 14:12 | -15.73957 | -60.79736 | 40014 ft | 482 kts | 48° |
| 2026-04-26 14:12 | -15.69653 | -60.74405 | 40016 ft | 482 kts | 48° |
| 2026-04-26 14:13 | -15.63201 | -60.66421 | 40013 ft | 481 kts | 48° |
| 2026-04-26 14:14 | -15.58901 | -60.61106 | 40016 ft | 481 kts | 48° |
| 2026-04-26 14:14 | -15.54596 | -60.55788 | 40012 ft | 481 kts | 48° |
| 2026-04-26 14:15 | -15.50292 | -60.50474 | 40012 ft | 481 kts | 48° |
| 2026-04-26 14:15 | -15.45981 | -60.45150 | 40011 ft | 482 kts | 49° |
| 2026-04-26 14:16 | -15.41711 | -60.39806 | 40015 ft | 482 kts | 49° |
| 2026-04-26 14:16 | -15.37414 | -60.34469 | 40016 ft | 482 kts | 48° |
| 2026-04-26 14:17 | -15.33095 | -60.29088 | 40016 ft | 482 kts | 49° |
| 2026-04-26 14:17 | -15.28804 | -60.23754 | 40013 ft | 482 kts | 48° |
| 2026-04-26 14:18 | -15.24453 | -60.18479 | 40013 ft | 481 kts | 47° |
| 2026-04-26 14:18 | -15.20125 | -60.13193 | 40018 ft | 481 kts | 48° |
| 2026-04-26 14:19 | -15.15789 | -60.07917 | 40020 ft | 481 kts | 47° |
| 2026-04-26 14:19 | -15.11448 | -60.02636 | 40016 ft | 481 kts | 48° |
| 2026-04-26 14:20 | -15.07114 | -59.97365 | 40017 ft | 481 kts | 47° |
| 2026-04-26 14:20 | -15.02781 | -59.92100 | 40019 ft | 480 kts | 47° |
| 2026-04-26 14:21 | -14.98457 | -59.86849 | 40014 ft | 480 kts | 47° |
| 2026-04-26 14:21 | -14.94132 | -59.81602 | 40017 ft | 480 kts | 47° |
| 2026-04-26 14:22 | -14.89794 | -59.76341 | 40014 ft | 480 kts | 47° |
| 2026-04-26 14:22 | -14.85465 | -59.71095 | 40015 ft | 480 kts | 47° |
| 2026-04-26 14:23 | -14.81133 | -59.65849 | 40014 ft | 479 kts | 47° |
| 2026-04-26 14:23 | -14.76810 | -59.60618 | 40015 ft | 479 kts | 47° |
| 2026-04-26 14:24 | -14.72488 | -59.55391 | 40017 ft | 478 kts | 47° |
| 2026-04-26 14:24 | -14.68172 | -59.50175 | 40024 ft | 478 kts | 47° |
| 2026-04-26 14:25 | -14.63841 | -59.44945 | 40027 ft | 478 kts | 47° |
| 2026-04-26 14:25 | -14.59515 | -59.39723 | 40030 ft | 478 kts | 47° |
| 2026-04-26 14:26 | -14.55192 | -59.34509 | 40032 ft | 477 kts | 47° |
| 2026-04-26 14:26 | -14.50882 | -59.29314 | 40036 ft | 476 kts | 47° |
| 2026-04-26 14:27 | -14.46571 | -59.24121 | 40037 ft | 476 kts | 47° |
| 2026-04-26 14:27 | -14.42263 | -59.18935 | 40041 ft | 476 kts | 47° |
| 2026-04-26 14:28 | -14.37955 | -59.13752 | 40045 ft | 476 kts | 47° |
| 2026-04-26 14:28 | -14.33652 | -59.08579 | 40049 ft | 475 kts | 47° |
| 2026-04-26 14:29 | -14.30066 | -59.04271 | 40046 ft | 475 kts | 47° |
| 2026-04-26 14:29 | -14.25734 | -58.99084 | 40046 ft | 475 kts | 47° |
| 2026-04-26 14:30 | -14.21448 | -58.93952 | 40048 ft | 476 kts | 47° |
| 2026-04-26 14:30 | -14.17142 | -58.88764 | 40052 ft | 476 kts | 47° |
| 2026-04-26 14:31 | -14.12816 | -58.83583 | 40051 ft | 477 kts | 47° |
| 2026-04-26 14:31 | -14.08467 | -58.78374 | 40048 ft | 476 kts | 47° |
| 2026-04-26 14:32 | -14.04152 | -58.73210 | 40044 ft | 476 kts | 47° |
| 2026-04-26 14:32 | -13.99860 | -58.68077 | 40046 ft | 476 kts | 47° |
| 2026-04-26 14:33 | -13.95534 | -58.62907 | 40043 ft | 477 kts | 47° |
| 2026-04-26 14:33 | -13.91198 | -58.57729 | 40044 ft | 478 kts | 47° |
| 2026-04-26 14:34 | -13.86829 | -58.52515 | 40047 ft | 478 kts | 47° |
| 2026-04-26 14:34 | -13.82509 | -58.47362 | 40045 ft | 479 kts | 47° |
| 2026-04-26 14:35 | -13.78123 | -58.42134 | 40043 ft | 480 kts | 47° |
| 2026-04-26 14:35 | -13.73762 | -58.36939 | 40041 ft | 481 kts | 47° |
| 2026-04-26 14:36 | -13.69390 | -58.31733 | 40037 ft | 480 kts | 47° |
| 2026-04-26 14:36 | -13.65031 | -58.26547 | 40039 ft | 480 kts | 47° |
| 2026-04-26 14:37 | -13.60660 | -58.21350 | 40041 ft | 480 kts | 47° |
| 2026-04-26 14:37 | -13.56321 | -58.16192 | 40040 ft | 480 kts | 47° |
| 2026-04-26 14:38 | -13.51931 | -58.10979 | 40038 ft | 479 kts | 47° |
| 2026-04-26 14:38 | -13.47563 | -58.05794 | 40036 ft | 479 kts | 47° |
| 2026-04-26 14:39 | -13.43199 | -58.00617 | 40037 ft | 479 kts | 47° |
| 2026-04-26 14:39 | -13.38869 | -57.95483 | 40034 ft | 478 kts | 47° |
| 2026-04-26 14:40 | -13.34487 | -57.90288 | 40029 ft | 477 kts | 47° |
| 2026-04-26 14:40 | -13.30147 | -57.85147 | 40026 ft | 477 kts | 47° |
| 2026-04-26 14:41 | -13.25800 | -57.80000 | 40026 ft | 477 kts | 47° |
| 2026-04-26 14:41 | -13.21454 | -57.74857 | 40022 ft | 477 kts | 47° |
| 2026-04-26 14:42 | -13.17112 | -57.69725 | 40024 ft | 476 kts | 47° |
| 2026-04-26 14:42 | -13.12763 | -57.64587 | 40018 ft | 477 kts | 47° |
| 2026-04-26 14:43 | -13.08418 | -57.59457 | 40019 ft | 476 kts | 47° |
| 2026-04-26 14:43 | -13.04076 | -57.54333 | 40019 ft | 476 kts | 47° |
| 2026-04-26 14:44 | -12.99728 | -57.49205 | 40012 ft | 476 kts | 47° |
| 2026-04-26 14:44 | -12.95379 | -57.44080 | 40011 ft | 476 kts | 47° |
| 2026-04-26 14:45 | -12.91028 | -57.38955 | 40012 ft | 476 kts | 47° |
| 2026-04-26 14:45 | -12.86683 | -57.33840 | 40013 ft | 476 kts | 47° |
| 2026-04-26 14:46 | -12.82344 | -57.28734 | 40013 ft | 476 kts | 47° |
| 2026-04-26 14:46 | -12.77999 | -57.23625 | 40012 ft | 475 kts | 47° |
| 2026-04-26 14:47 | -12.73682 | -57.18551 | 40007 ft | 475 kts | 47° |
| 2026-04-26 14:47 | -12.69319 | -57.13427 | 40006 ft | 474 kts | 47° |
| 2026-04-26 14:48 | -12.64989 | -57.08338 | 40002 ft | 473 kts | 47° |
| 2026-04-26 14:48 | -12.60686 | -57.03290 | 40001 ft | 473 kts | 47° |
| 2026-04-26 14:49 | -12.56339 | -56.98191 | 40001 ft | 472 kts | 47° |
| 2026-04-26 14:49 | -12.52022 | -56.93129 | 40003 ft | 472 kts | 47° |
| 2026-04-26 14:50 | -12.47729 | -56.88099 | 39999 ft | 472 kts | 47° |
| 2026-04-26 14:50 | -12.43416 | -56.83048 | 40002 ft | 472 kts | 47° |
| 2026-04-26 14:51 | -12.39095 | -56.77991 | 40004 ft | 472 kts | 47° |
| 2026-04-26 14:51 | -12.34771 | -56.72933 | 40005 ft | 472 kts | 47° |
| 2026-04-26 14:52 | -12.30425 | -56.67851 | 40005 ft | 472 kts | 47° |
| 2026-04-26 14:52 | -12.26105 | -56.62804 | 40008 ft | 472 kts | 47° |
| 2026-04-26 14:53 | -12.21786 | -56.57760 | 40010 ft | 471 kts | 47° |
| 2026-04-26 14:53 | -12.17460 | -56.52721 | 40005 ft | 472 kts | 47° |
| 2026-04-26 14:54 | -12.13133 | -56.47681 | 40001 ft | 472 kts | 47° |
| 2026-04-26 14:54 | -12.08796 | -56.42622 | 40004 ft | 472 kts | 47° |
| 2026-04-26 14:55 | -12.04439 | -56.37549 | 40008 ft | 472 kts | 47° |
| 2026-04-26 14:55 | -12.00126 | -56.32526 | 40010 ft | 473 kts | 47° |
| 2026-04-26 14:56 | -11.95760 | -56.27445 | 40009 ft | 473 kts | 47° |
| 2026-04-26 14:56 | -11.91424 | -56.22401 | 40011 ft | 473 kts | 48° |
| 2026-04-26 14:57 | -11.87088 | -56.17346 | 40011 ft | 473 kts | 48° |
| 2026-04-26 14:57 | -11.82784 | -56.12257 | 40012 ft | 474 kts | 48° |
| 2026-04-26 14:58 | -11.78455 | -56.07184 | 40014 ft | 474 kts | 48° |
| 2026-04-26 14:58 | -11.74123 | -56.02087 | 40011 ft | 475 kts | 48° |
| 2026-04-26 14:59 | -11.69795 | -55.97010 | 40007 ft | 475 kts | 48° |
| 2026-04-26 14:59 | -11.65456 | -55.91916 | 40011 ft | 475 kts | 48° |
| 2026-04-26 15:00 | -11.61120 | -55.86832 | 40011 ft | 475 kts | 48° |
| 2026-04-26 15:00 | -11.56784 | -55.81747 | 40011 ft | 475 kts | 48° |
| 2026-04-26 15:01 | -11.52448 | -55.76667 | 40008 ft | 474 kts | 48° |
| 2026-04-26 15:01 | -11.48125 | -55.71605 | 40009 ft | 473 kts | 48° |
| 2026-04-26 15:02 | -11.43799 | -55.66541 | 40011 ft | 473 kts | 48° |
| 2026-04-26 15:02 | -11.39481 | -55.61489 | 40009 ft | 472 kts | 48° |
| 2026-04-26 15:03 | -11.35172 | -55.56452 | 40003 ft | 471 kts | 48° |
| 2026-04-26 15:03 | -11.30876 | -55.51429 | 40007 ft | 470 kts | 48° |
| 2026-04-26 15:04 | -11.26585 | -55.46421 | 40008 ft | 469 kts | 48° |
| 2026-04-26 15:04 | -11.22296 | -55.41414 | 40007 ft | 468 kts | 48° |
| 2026-04-26 15:05 | -11.18020 | -55.36423 | 40002 ft | 468 kts | 48° |
| 2026-04-26 15:05 | -11.13741 | -55.31432 | 40002 ft | 467 kts | 48° |
| 2026-04-26 15:06 | -11.09464 | -55.26446 | 40003 ft | 467 kts | 49° |
| 2026-04-26 15:06 | -11.05913 | -55.22307 | 40002 ft | 467 kts | 49° |
| 2026-04-26 15:07 | -10.99506 | -55.14845 | 40002 ft | 467 kts | 49° |
| 2026-04-26 15:07 | -10.95231 | -55.09869 | 40005 ft | 468 kts | 49° |
| 2026-04-26 15:08 | -10.90938 | -55.04875 | 40007 ft | 469 kts | 49° |
| 2026-04-26 15:08 | -10.86630 | -54.99865 | 40010 ft | 471 kts | 49° |
| 2026-04-26 15:09 | -10.82309 | -54.94843 | 40008 ft | 472 kts | 49° |
| 2026-04-26 15:09 | -10.77951 | -54.89780 | 40006 ft | 473 kts | 49° |
| 2026-04-26 15:10 | -10.74346 | -54.85595 | 40005 ft | 474 kts | 49° |
| 2026-04-26 15:10 | -10.69263 | -54.79696 | 40005 ft | 474 kts | 49° |
| 2026-04-26 15:11 | -10.64940 | -54.74681 | 40001 ft | 475 kts | 49° |
| 2026-04-26 15:11 | -10.60588 | -54.69635 | 40004 ft | 474 kts | 49° |
| 2026-04-26 15:12 | -10.56241 | -54.64598 | 40001 ft | 474 kts | 49° |
| 2026-04-26 15:12 | -10.51867 | -54.59532 | 40001 ft | 474 kts | 49° |
| 2026-04-26 15:13 | -10.47547 | -54.54531 | 40005 ft | 473 kts | 49° |
| 2026-04-26 15:13 | -10.43208 | -54.49509 | 40006 ft | 473 kts | 49° |
| 2026-04-26 15:14 | -10.38862 | -54.44483 | 40000 ft | 473 kts | 49° |
| 2026-04-26 15:14 | -10.34525 | -54.39468 | 40002 ft | 473 kts | 49° |
| 2026-04-26 15:15 | -10.30187 | -54.34454 | 40004 ft | 473 kts | 49° |
| 2026-04-26 15:15 | -10.25844 | -54.29438 | 40002 ft | 473 kts | 49° |
| 2026-04-26 15:16 | -10.21503 | -54.24426 | 39998 ft | 473 kts | 49° |
| 2026-04-26 15:16 | -10.17157 | -54.19410 | 40004 ft | 473 kts | 49° |
| 2026-04-26 15:17 | -10.13543 | -54.15242 | 40002 ft | 473 kts | 49° |
| 2026-04-26 15:17 | -10.08455 | -54.09374 | 40003 ft | 474 kts | 49° |
| 2026-04-26 15:18 | -10.04104 | -54.04358 | 40005 ft | 474 kts | 49° |
| 2026-04-26 15:18 | -9.99750 | -53.99340 | 39997 ft | 473 kts | 49° |
| 2026-04-26 15:19 | -9.95406 | -53.94337 | 39997 ft | 472 kts | 49° |
| 2026-04-26 15:19 | -9.91062 | -53.89336 | 39997 ft | 472 kts | 49° |
| 2026-04-26 15:20 | -9.86728 | -53.84348 | 39995 ft | 472 kts | 49° |
| 2026-04-26 15:20 | -9.82387 | -53.79358 | 39994 ft | 472 kts | 49° |
| 2026-04-26 15:21 | -9.78049 | -53.74374 | 40001 ft | 471 kts | 49° |
| 2026-04-26 15:21 | -9.73711 | -53.69391 | 40000 ft | 471 kts | 49° |
| 2026-04-26 15:22 | -9.69371 | -53.64409 | 39998 ft | 471 kts | 49° |
| 2026-04-26 15:22 | -9.65032 | -53.59429 | 39994 ft | 471 kts | 49° |
| 2026-04-26 15:23 | -9.60695 | -53.54455 | 39997 ft | 471 kts | 49° |
| 2026-04-26 15:23 | -9.56349 | -53.49471 | 40000 ft | 471 kts | 49° |
| 2026-04-26 15:24 | -9.52038 | -53.44530 | 39997 ft | 471 kts | 49° |
| 2026-04-26 15:24 | -9.47700 | -53.39553 | 39999 ft | 472 kts | 49° |
| 2026-04-26 15:25 | -9.44061 | -53.35383 | 39999 ft | 472 kts | 49° |
| 2026-04-26 15:25 | -9.39008 | -53.29593 | 39997 ft | 472 kts | 49° |
| 2026-04-26 15:26 | -9.34660 | -53.24613 | 39996 ft | 472 kts | 49° |
| 2026-04-26 15:26 | -9.30305 | -53.19629 | 39996 ft | 472 kts | 49° |
| 2026-04-26 15:27 | -9.25964 | -53.14661 | 39994 ft | 472 kts | 49° |
| 2026-04-26 15:27 | -9.21610 | -53.09680 | 39994 ft | 472 kts | 49° |
| 2026-04-26 15:28 | -9.17227 | -53.04668 | 39994 ft | 473 kts | 49° |
| 2026-04-26 15:28 | -9.12858 | -52.99676 | 39996 ft | 473 kts | 49° |
| 2026-04-26 15:29 | -9.08501 | -52.94697 | 39995 ft | 473 kts | 49° |
| 2026-04-26 15:30 | -8.99900 | -52.84884 | 39990 ft | 474 kts | 49° |
| 2026-04-26 15:30 | -8.95529 | -52.79900 | 39988 ft | 474 kts | 49° |
| 2026-04-26 15:31 | -8.88966 | -52.72419 | 39986 ft | 474 kts | 49° |
| 2026-04-26 15:32 | -8.83142 | -52.65786 | 39985 ft | 474 kts | 49° |
| 2026-04-26 15:32 | -8.78022 | -52.59957 | 39982 ft | 475 kts | 49° |
| 2026-04-26 15:33 | -8.73642 | -52.54972 | 39984 ft | 475 kts | 49° |
| 2026-04-26 15:33 | -8.69252 | -52.49979 | 39983 ft | 475 kts | 49° |
| 2026-04-26 15:34 | -8.64869 | -52.44994 | 39982 ft | 475 kts | 49° |
| 2026-04-26 15:34 | -8.60488 | -52.40014 | 39980 ft | 475 kts | 49° |
| 2026-04-26 15:35 | -8.55707 | -52.35431 | 40000 ft | 476 kts | 32° |
| 2026-04-26 15:35 | -8.49947 | -52.32099 | 39982 ft | 477 kts | 30° |
| 2026-04-26 15:36 | -8.44166 | -52.28810 | 39984 ft | 477 kts | 30° |
| 2026-04-26 15:36 | -8.38397 | -52.25517 | 39983 ft | 477 kts | 30° |
| 2026-04-26 15:37 | -8.32620 | -52.22231 | 39983 ft | 477 kts | 31° |
| 2026-04-26 15:37 | -8.26844 | -52.18941 | 39984 ft | 476 kts | 30° |
| 2026-04-26 15:38 | -8.21115 | -52.15682 | 39986 ft | 476 kts | 31° |
| 2026-04-26 15:38 | -8.15316 | -52.12382 | 39985 ft | 475 kts | 31° |
| 2026-04-26 15:39 | -8.09556 | -52.09107 | 39988 ft | 475 kts | 31° |
| 2026-04-26 15:39 | -8.05746 | -52.06941 | 39987 ft | 475 kts | 31° |
| 2026-04-26 15:40 | -7.98090 | -52.02590 | 39984 ft | 474 kts | 31° |
| 2026-04-26 15:40 | -7.92338 | -51.99322 | 39989 ft | 474 kts | 31° |
| 2026-04-26 15:41 | -7.86595 | -51.96061 | 39993 ft | 474 kts | 31° |
| 2026-04-26 15:41 | -7.80851 | -51.92800 | 39992 ft | 474 kts | 31° |
| 2026-04-26 15:42 | -7.75094 | -51.89533 | 39989 ft | 475 kts | 31° |
| 2026-04-26 15:42 | -7.69337 | -51.86267 | 39987 ft | 475 kts | 31° |
| 2026-04-26 15:43 | -7.63575 | -51.82999 | 39988 ft | 475 kts | 31° |
| 2026-04-26 15:44 | -7.54915 | -51.78089 | 39974 ft | 476 kts | 31° |
| 2026-04-26 15:44 | -7.46248 | -51.73178 | 39978 ft | 476 kts | 31° |
| 2026-04-26 15:45 | -7.37585 | -51.68271 | 39974 ft | 476 kts | 30° |
| 2026-04-26 15:46 | -7.28925 | -51.63368 | 39973 ft | 476 kts | 30° |
| 2026-04-26 15:46 | -7.25073 | -51.61189 | 39972 ft | 475 kts | 30° |
| 2026-04-26 15:47 | -7.14518 | -51.55216 | 39971 ft | 475 kts | 30° |
| 2026-04-26 15:48 | -7.08711 | -51.52039 | 39970 ft | 475 kts | 29° |
| 2026-04-26 15:48 | -7.03896 | -51.49377 | 39971 ft | 475 kts | 30° |
| 2026-04-26 15:49 | -6.98058 | -51.46232 | 39977 ft | 476 kts | 29° |
| 2026-04-26 15:49 | -6.92217 | -51.43068 | 39975 ft | 477 kts | 30° |
| 2026-04-26 15:50 | -6.86382 | -51.39910 | 39972 ft | 477 kts | 29° |
| 2026-04-26 15:50 | -6.80538 | -51.36757 | 39977 ft | 477 kts | 30° |
| 2026-04-26 15:51 | -6.74681 | -51.33590 | 39977 ft | 478 kts | 29° |
| 2026-04-26 15:51 | -6.68819 | -51.30427 | 39979 ft | 479 kts | 29° |
| 2026-04-26 15:52 | -6.62950 | -51.27257 | 39972 ft | 478 kts | 30° |
| 2026-04-26 15:52 | -6.57093 | -51.24097 | 39971 ft | 477 kts | 30° |
| 2026-04-26 15:53 | -6.51249 | -51.20943 | 39974 ft | 477 kts | 30° |
| 2026-04-26 15:53 | -6.45403 | -51.17791 | 39975 ft | 477 kts | 30° |
| 2026-04-26 15:54 | -6.39558 | -51.14639 | 39973 ft | 477 kts | 30° |
| 2026-04-26 15:54 | -6.33722 | -51.11493 | 39977 ft | 476 kts | 30° |
| 2026-04-26 15:55 | -6.27877 | -51.08343 | 39973 ft | 476 kts | 30° |
| 2026-04-26 15:55 | -6.22041 | -51.05200 | 39974 ft | 476 kts | 30° |
| 2026-04-26 15:56 | -6.16197 | -51.02052 | 39971 ft | 476 kts | 30° |
| 2026-04-26 15:56 | -6.10353 | -50.98906 | 39971 ft | 477 kts | 30° |
| 2026-04-26 15:57 | -6.04505 | -50.95758 | 39972 ft | 477 kts | 30° |
| 2026-04-26 15:57 | -5.98647 | -50.92606 | 39974 ft | 477 kts | 30° |
| 2026-04-26 15:58 | -5.92800 | -50.89461 | 39973 ft | 478 kts | 30° |
| 2026-04-26 15:58 | -5.86931 | -50.86304 | 39976 ft | 478 kts | 30° |
| 2026-04-26 15:59 | -5.81082 | -50.83159 | 39979 ft | 478 kts | 30° |
| 2026-04-26 15:59 | -5.75224 | -50.80009 | 39977 ft | 478 kts | 30° |
| 2026-04-26 16:00 | -5.69362 | -50.76858 | 39973 ft | 477 kts | 30° |
| 2026-04-26 16:00 | -5.63510 | -50.73713 | 39973 ft | 477 kts | 30° |
| 2026-04-26 16:01 | -5.57648 | -50.70564 | 39970 ft | 478 kts | 30° |
| 2026-04-26 16:01 | -5.51794 | -50.67420 | 39968 ft | 478 kts | 30° |
| 2026-04-26 16:02 | -5.45937 | -50.64274 | 39967 ft | 478 kts | 30° |
| 2026-04-26 16:02 | -5.40071 | -50.61124 | 39969 ft | 478 kts | 30° |
| 2026-04-26 16:03 | -5.34211 | -50.57979 | 39959 ft | 478 kts | 30° |
| 2026-04-26 16:03 | -5.28333 | -50.54824 | 39960 ft | 479 kts | 30° |
| 2026-04-26 16:04 | -5.22451 | -50.51668 | 39964 ft | 480 kts | 30° |
| 2026-04-26 16:04 | -5.16559 | -50.48506 | 39964 ft | 481 kts | 30° |
| 2026-04-26 16:05 | -5.10656 | -50.45341 | 39965 ft | 481 kts | 30° |
| 2026-04-26 16:05 | -5.04802 | -50.42202 | 39958 ft | 481 kts | 30° |
| 2026-04-26 16:06 | -4.98850 | -50.39011 | 39959 ft | 481 kts | 30° |
| 2026-04-26 16:06 | -4.92947 | -50.35846 | 39962 ft | 481 kts | 30° |
| 2026-04-26 16:07 | -4.87034 | -50.32678 | 39960 ft | 481 kts | 30° |
| 2026-04-26 16:07 | -4.81128 | -50.29513 | 39956 ft | 482 kts | 30° |
| 2026-04-26 16:08 | -4.75219 | -50.26348 | 39963 ft | 481 kts | 30° |
| 2026-04-26 16:08 | -4.69321 | -50.23189 | 39964 ft | 480 kts | 30° |
| 2026-04-26 16:09 | -4.63433 | -50.20036 | 39959 ft | 480 kts | 30° |
| 2026-04-26 16:09 | -4.57546 | -50.16884 | 39959 ft | 479 kts | 30° |
| 2026-04-26 16:10 | -4.51678 | -50.13742 | 39953 ft | 478 kts | 30° |
| 2026-04-26 16:10 | -4.45805 | -50.10600 | 39951 ft | 478 kts | 30° |
| 2026-04-26 16:11 | -4.39939 | -50.07460 | 39956 ft | 479 kts | 30° |
| 2026-04-26 16:11 | -4.34064 | -50.04317 | 39960 ft | 478 kts | 30° |
| 2026-04-26 16:12 | -4.28196 | -50.01179 | 39955 ft | 478 kts | 30° |
| 2026-04-26 16:12 | -4.19398 | -49.96473 | 39953 ft | 478 kts | 30° |
| 2026-04-26 16:13 | -4.13544 | -49.93344 | 39955 ft | 477 kts | 30° |
| 2026-04-26 16:13 | -4.07681 | -49.90209 | 39957 ft | 477 kts | 30° |
| 2026-04-26 16:14 | -4.01826 | -49.87080 | 39954 ft | 477 kts | 30° |
| 2026-04-26 16:15 | -3.93055 | -49.82393 | 39952 ft | 477 kts | 30° |
| 2026-04-26 16:15 | -3.87199 | -49.79264 | 39954 ft | 477 kts | 30° |
| 2026-04-26 16:16 | -3.78431 | -49.74581 | 39952 ft | 476 kts | 30° |
| 2026-04-26 16:16 | -3.72589 | -49.71460 | 39952 ft | 476 kts | 30° |
| 2026-04-26 16:17 | -3.66740 | -49.68338 | 39951 ft | 476 kts | 30° |
| 2026-04-26 16:17 | -3.60899 | -49.65219 | 39948 ft | 476 kts | 30° |
| 2026-04-26 16:18 | -3.52135 | -49.60540 | 39946 ft | 476 kts | 30° |
| 2026-04-26 16:19 | -3.43361 | -49.55858 | 39944 ft | 477 kts | 30° |
| 2026-04-26 16:20 | -3.34584 | -49.51176 | 39949 ft | 477 kts | 30° |
| 2026-04-26 16:20 | -3.25816 | -49.46499 | 39946 ft | 475 kts | 30° |
| 2026-04-26 16:21 | -3.19990 | -49.43392 | 39946 ft | 474 kts | 30° |
| 2026-04-26 16:21 | -3.14166 | -49.40287 | 39941 ft | 474 kts | 30° |
| 2026-04-26 16:22 | -3.08349 | -49.37186 | 39941 ft | 474 kts | 30° |
| 2026-04-26 16:22 | -3.02540 | -49.34089 | 39938 ft | 473 kts | 30° |
| 2026-04-26 16:23 | -2.96739 | -49.30997 | 39941 ft | 472 kts | 30° |
| 2026-04-26 16:23 | -2.90936 | -49.27904 | 39935 ft | 473 kts | 30° |
| 2026-04-26 16:24 | -2.85130 | -49.24810 | 39935 ft | 473 kts | 30° |
| 2026-04-26 16:24 | -2.79319 | -49.21715 | 39939 ft | 472 kts | 30° |
| 2026-04-26 16:25 | -2.73521 | -49.18625 | 39931 ft | 473 kts | 30° |
| 2026-04-26 16:25 | -2.67705 | -49.15528 | 39936 ft | 474 kts | 30° |
| 2026-04-26 16:26 | -2.62819 | -49.12925 | 39940 ft | 475 kts | 30° |
| 2026-04-26 16:26 | -2.56171 | -49.09384 | 39932 ft | 475 kts | 30° |
| 2026-04-26 16:27 | -2.50352 | -49.06285 | 39935 ft | 473 kts | 30° |
| 2026-04-26 16:27 | -2.44552 | -49.03197 | 39927 ft | 471 kts | 30° |
| 2026-04-26 16:28 | -2.38768 | -49.00117 | 39931 ft | 471 kts | 30° |
| 2026-04-26 16:28 | -2.32989 | -48.97041 | 39931 ft | 472 kts | 30° |
| 2026-04-26 16:29 | -2.28127 | -48.94453 | 39930 ft | 473 kts | 30° |
| 2026-04-26 16:29 | -2.22315 | -48.91359 | 39936 ft | 473 kts | 31° |
| 2026-04-26 16:30 | -2.16503 | -48.88266 | 39935 ft | 473 kts | 31° |
| 2026-04-26 16:30 | -2.10690 | -48.85172 | 39938 ft | 473 kts | 31° |
| 2026-04-26 16:31 | -2.04865 | -48.82073 | 39935 ft | 474 kts | 31° |
| 2026-04-26 16:31 | -1.99049 | -48.78978 | 39933 ft | 474 kts | 31° |
| 2026-04-26 16:32 | -1.93193 | -48.75934 | 39933 ft | 474 kts | 29° |
| 2026-04-26 16:32 | -1.87323 | -48.72952 | 39932 ft | 473 kts | 30° |
| 2026-04-26 16:33 | -1.81485 | -48.69936 | 39932 ft | 472 kts | 30° |
| 2026-04-26 16:33 | -1.75633 | -48.66946 | 39934 ft | 472 kts | 30° |
| 2026-04-26 16:34 | -1.69794 | -48.63942 | 39931 ft | 473 kts | 30° |
| 2026-04-26 16:34 | -1.63973 | -48.60960 | 39931 ft | 473 kts | 30° |
| 2026-04-26 16:35 | -1.58124 | -48.57956 | 39926 ft | 472 kts | 30° |
| 2026-04-26 16:35 | -1.52279 | -48.54959 | 39925 ft | 473 kts | 30° |
| 2026-04-26 16:36 | -1.46421 | -48.51953 | 39918 ft | 473 kts | 30° |
| 2026-04-26 16:36 | -1.40557 | -48.48945 | 39921 ft | 474 kts | 30° |
| 2026-04-26 16:37 | -1.34750 | -48.45819 | 39919 ft | 475 kts | 31° |
| 2026-04-26 16:37 | -1.28924 | -48.42704 | 39921 ft | 475 kts | 31° |
| 2026-04-26 16:38 | -1.23133 | -48.39524 | 39925 ft | 476 kts | 31° |
| 2026-04-26 16:38 | -1.17312 | -48.36375 | 39926 ft | 475 kts | 31° |
| 2026-04-26 16:39 | -1.11508 | -48.33211 | 39931 ft | 475 kts | 31° |
| 2026-04-26 16:39 | -1.05700 | -48.30057 | 39933 ft | 475 kts | 31° |
| 2026-04-26 16:40 | -0.99894 | -48.26898 | 39933 ft | 475 kts | 31° |
| 2026-04-26 16:40 | -0.94083 | -48.23739 | 39930 ft | 475 kts | 31° |
| 2026-04-26 16:41 | -0.88285 | -48.20587 | 39933 ft | 475 kts | 31° |
| 2026-04-26 16:41 | -0.82492 | -48.17437 | 39934 ft | 474 kts | 31° |
| 2026-04-26 16:42 | -0.76685 | -48.14280 | 39931 ft | 474 kts | 31° |
| 2026-04-26 16:42 | -0.70887 | -48.11127 | 39932 ft | 475 kts | 31° |
| 2026-04-26 16:43 | -0.65082 | -48.07971 | 39936 ft | 475 kts | 31° |
| 2026-04-26 16:43 | -0.59305 | -48.04830 | 39934 ft | 475 kts | 31° |
| 2026-04-26 16:44 | -0.53482 | -48.01664 | 39934 ft | 474 kts | 31° |
| 2026-04-26 16:44 | -0.47728 | -47.98535 | 39935 ft | 473 kts | 31° |
| 2026-04-26 16:45 | -0.41990 | -47.95416 | 39939 ft | 473 kts | 32° |
| 2026-04-26 16:45 | -0.36212 | -47.92274 | 39939 ft | 472 kts | 32° |
| 2026-04-26 16:46 | -0.30445 | -47.89139 | 39935 ft | 472 kts | 32° |
| 2026-04-26 16:46 | -0.24686 | -47.86008 | 39933 ft | 471 kts | 32° |
| 2026-04-26 16:47 | -0.18930 | -47.82879 | 39940 ft | 471 kts | 32° |
| 2026-04-26 16:47 | -0.13177 | -47.79751 | 39939 ft | 471 kts | 32° |
| 2026-04-26 16:48 | -0.07410 | -47.76616 | 39936 ft | 472 kts | 32° |
| 2026-04-26 16:48 | -0.01644 | -47.73481 | 39936 ft | 471 kts | 32° |
| 2026-04-26 16:49 | 0.04116 | -47.70350 | 39935 ft | 472 kts | 31° |
| 2026-04-26 16:49 | 0.09901 | -47.67206 | 39936 ft | 473 kts | 31° |
| 2026-04-26 16:50 | 0.15677 | -47.64065 | 39932 ft | 473 kts | 31° |
| 2026-04-26 16:50 | 0.21459 | -47.60922 | 39934 ft | 472 kts | 31° |
| 2026-04-26 16:51 | 0.27228 | -47.57785 | 39936 ft | 472 kts | 31° |
| 2026-04-26 16:51 | 0.32986 | -47.54655 | 39935 ft | 471 kts | 31° |
| 2026-04-26 16:52 | 0.37752 | -47.52064 | 39932 ft | 470 kts | 31° |
| 2026-04-26 16:52 | 0.44461 | -47.48416 | 39932 ft | 470 kts | 31° |
| 2026-04-26 16:53 | 0.50201 | -47.45296 | 39935 ft | 470 kts | 31° |
| 2026-04-26 16:53 | 0.55951 | -47.42169 | 39935 ft | 470 kts | 31° |
| 2026-04-26 16:54 | 0.61692 | -47.39048 | 39932 ft | 469 kts | 31° |
| 2026-04-26 16:54 | 0.67416 | -47.35936 | 39935 ft | 468 kts | 31° |
| 2026-04-26 16:55 | 0.73144 | -47.32821 | 39937 ft | 469 kts | 31° |
| 2026-04-26 16:55 | 0.78866 | -47.29710 | 39932 ft | 470 kts | 31° |
| 2026-04-26 16:56 | 0.87500 | -47.25015 | 39934 ft | 471 kts | 31° |
| 2026-04-26 16:57 | 0.93242 | -47.21892 | 39941 ft | 469 kts | 31° |
| 2026-04-26 16:57 | 1.01877 | -47.17196 | 39938 ft | 469 kts | 31° |
| 2026-04-26 16:58 | 1.06639 | -47.14607 | 39934 ft | 469 kts | 31° |
| 2026-04-26 16:59 | 1.16208 | -47.09402 | 39940 ft | 469 kts | 31° |
| 2026-04-26 17:00 | 1.27640 | -47.03184 | 39934 ft | 467 kts | 31° |
| 2026-04-26 17:00 | 1.36175 | -46.98543 | 39933 ft | 466 kts | 31° |
| 2026-04-26 17:01 | 1.41881 | -46.95440 | 39931 ft | 467 kts | 31° |
| 2026-04-26 17:01 | 1.47555 | -46.92354 | 39932 ft | 468 kts | 31° |
| 2026-04-26 17:02 | 1.53276 | -46.89242 | 39935 ft | 469 kts | 31° |
| 2026-04-26 17:02 | 1.59044 | -46.86105 | 39936 ft | 470 kts | 31° |
| 2026-04-26 17:03 | 1.64754 | -46.82999 | 39930 ft | 470 kts | 31° |
| 2026-04-26 17:03 | 1.70484 | -46.79881 | 39928 ft | 469 kts | 31° |
| 2026-04-26 17:04 | 1.76225 | -46.76758 | 39934 ft | 470 kts | 31° |
| 2026-04-26 17:04 | 1.81977 | -46.73628 | 39931 ft | 471 kts | 31° |
| 2026-04-26 17:05 | 1.87733 | -46.70496 | 39932 ft | 472 kts | 31° |
| 2026-04-26 17:05 | 1.93517 | -46.67349 | 39934 ft | 473 kts | 31° |
| 2026-04-26 17:06 | 1.99302 | -46.64200 | 39934 ft | 475 kts | 31° |
| 2026-04-26 17:06 | 2.05107 | -46.61041 | 39935 ft | 475 kts | 31° |
| 2026-04-26 17:07 | 2.10915 | -46.57879 | 39937 ft | 475 kts | 31° |
| 2026-04-26 17:07 | 2.16708 | -46.54725 | 39935 ft | 474 kts | 31° |
| 2026-04-26 17:08 | 2.22496 | -46.51573 | 39929 ft | 473 kts | 31° |
| 2026-04-26 17:08 | 2.28277 | -46.48425 | 39930 ft | 473 kts | 31° |
| 2026-04-26 17:09 | 2.32142 | -46.46319 | 39930 ft | 473 kts | 31° |
| 2026-04-26 17:09 | 2.39828 | -46.42133 | 39934 ft | 473 kts | 31° |
| 2026-04-26 17:10 | 2.45613 | -46.38982 | 39940 ft | 474 kts | 31° |
| 2026-04-26 17:10 | 2.51407 | -46.35825 | 39937 ft | 474 kts | 31° |
| 2026-04-26 17:11 | 2.56221 | -46.33202 | 39938 ft | 473 kts | 31° |
| 2026-04-26 17:11 | 2.61996 | -46.30055 | 39938 ft | 472 kts | 32° |
| 2026-04-26 17:12 | 2.70651 | -46.25338 | 39939 ft | 472 kts | 32° |
| 2026-04-26 17:13 | 2.79307 | -46.20620 | 39941 ft | 473 kts | 32° |
| 2026-04-26 17:14 | 2.87977 | -46.15893 | 39936 ft | 473 kts | 32° |
| 2026-04-26 17:14 | 2.96652 | -46.11163 | 39936 ft | 473 kts | 32° |
| 2026-04-26 17:15 | 3.05306 | -46.06444 | 39936 ft | 472 kts | 32° |
| 2026-04-26 17:16 | 3.11075 | -46.03297 | 39935 ft | 472 kts | 32° |
| 2026-04-26 17:16 | 3.16846 | -46.00149 | 39936 ft | 473 kts | 31° |
| 2026-04-26 17:17 | 3.22635 | -45.96990 | 39936 ft | 475 kts | 31° |
| 2026-04-26 17:17 | 3.28438 | -45.93824 | 39941 ft | 475 kts | 31° |
| 2026-04-26 17:18 | 3.34235 | -45.90661 | 39940 ft | 474 kts | 31° |
| 2026-04-26 17:18 | 3.40027 | -45.87499 | 39937 ft | 474 kts | 31° |
| 2026-04-26 17:19 | 3.48698 | -45.82765 | 39940 ft | 474 kts | 31° |
| 2026-04-26 17:19 | 3.54498 | -45.79599 | 39937 ft | 475 kts | 31° |
| 2026-04-26 17:20 | 3.59315 | -45.76968 | 39937 ft | 475 kts | 31° |
| 2026-04-26 17:20 | 3.66088 | -45.73269 | 39937 ft | 475 kts | 31° |
| 2026-04-26 17:21 | 3.71900 | -45.70095 | 39936 ft | 476 kts | 31° |
| 2026-04-26 17:21 | 3.77720 | -45.66916 | 39940 ft | 477 kts | 31° |
| 2026-04-26 17:22 | 3.83550 | -45.63731 | 39942 ft | 477 kts | 31° |
| 2026-04-26 17:22 | 3.89379 | -45.60546 | 39940 ft | 477 kts | 31° |
| 2026-04-26 17:23 | 3.95203 | -45.57364 | 39942 ft | 477 kts | 31° |
| 2026-04-26 17:23 | 4.01025 | -45.54182 | 39944 ft | 477 kts | 31° |
| 2026-04-26 17:24 | 4.06819 | -45.51014 | 39946 ft | 477 kts | 31° |
| 2026-04-26 17:24 | 4.12634 | -45.47835 | 39943 ft | 476 kts | 31° |
| 2026-04-26 17:25 | 4.18439 | -45.44661 | 39941 ft | 475 kts | 31° |
| 2026-04-26 17:25 | 4.24241 | -45.41488 | 39940 ft | 475 kts | 31° |
| 2026-04-26 17:26 | 4.30043 | -45.38314 | 39940 ft | 475 kts | 31° |
| 2026-04-26 17:26 | 4.35837 | -45.35144 | 39939 ft | 474 kts | 31° |
| 2026-04-26 17:27 | 4.41625 | -45.31977 | 39939 ft | 475 kts | 31° |
| 2026-04-26 17:27 | 4.47428 | -45.28801 | 39936 ft | 475 kts | 31° |
| 2026-04-26 17:28 | 4.53234 | -45.25623 | 39938 ft | 475 kts | 31° |
| 2026-04-26 17:28 | 4.59037 | -45.22446 | 39938 ft | 475 kts | 31° |
| 2026-04-26 17:29 | 4.63852 | -45.19809 | 39939 ft | 474 kts | 31° |
| 2026-04-26 17:29 | 4.70624 | -45.16100 | 39937 ft | 474 kts | 31° |
| 2026-04-26 17:30 | 4.76422 | -45.12924 | 39937 ft | 475 kts | 31° |
| 2026-04-26 17:30 | 4.82193 | -45.09762 | 39938 ft | 477 kts | 31° |
| 2026-04-26 17:31 | 4.88016 | -45.06571 | 39941 ft | 477 kts | 31° |
| 2026-04-26 17:31 | 4.93835 | -45.03381 | 39945 ft | 477 kts | 31° |
| 2026-04-26 17:32 | 4.99652 | -45.00191 | 39939 ft | 477 kts | 32° |
| 2026-04-26 17:32 | 5.05321 | -44.96736 | 39940 ft | 477 kts | 33° |
| 2026-04-26 17:33 | 5.10991 | -44.93293 | 39942 ft | 477 kts | 34° |
| 2026-04-26 17:34 | 5.19485 | -44.88090 | 39942 ft | 477 kts | 33° |
| 2026-04-26 17:34 | 5.25158 | -44.84620 | 39942 ft | 478 kts | 33° |
| 2026-04-26 17:35 | 5.30838 | -44.81145 | 39949 ft | 479 kts | 33° |
| 2026-04-26 17:35 | 5.36534 | -44.77661 | 39948 ft | 479 kts | 33° |
| 2026-04-26 17:36 | 5.42212 | -44.74184 | 39944 ft | 478 kts | 33° |
| 2026-04-26 17:36 | 5.47888 | -44.70711 | 39943 ft | 477 kts | 33° |
| 2026-04-26 17:37 | 5.53547 | -44.67246 | 39943 ft | 477 kts | 33° |
| 2026-04-26 17:37 | 5.59213 | -44.63776 | 39939 ft | 477 kts | 33° |
| 2026-04-26 17:38 | 5.67702 | -44.58575 | 39943 ft | 477 kts | 33° |
| 2026-04-26 17:38 | 5.73362 | -44.55107 | 39939 ft | 477 kts | 33° |
| 2026-04-26 17:39 | 5.79029 | -44.51634 | 39942 ft | 477 kts | 33° |
| 2026-04-26 17:39 | 5.84698 | -44.48158 | 39943 ft | 477 kts | 33° |
| 2026-04-26 17:40 | 5.88486 | -44.45835 | 39943 ft | 478 kts | 33° |
| 2026-04-26 17:40 | 5.96050 | -44.41196 | 39947 ft | 479 kts | 33° |
| 2026-04-26 17:41 | 6.01734 | -44.37709 | 39949 ft | 479 kts | 33° |
| 2026-04-26 17:41 | 6.07462 | -44.34194 | 39952 ft | 480 kts | 33° |
| 2026-04-26 17:42 | 6.13157 | -44.30698 | 39951 ft | 480 kts | 33° |
| 2026-04-26 17:42 | 6.18822 | -44.27220 | 39950 ft | 480 kts | 33° |
| 2026-04-26 17:43 | 6.24517 | -44.23723 | 39951 ft | 480 kts | 33° |
| 2026-04-26 17:43 | 6.30207 | -44.20227 | 39947 ft | 479 kts | 33° |
| 2026-04-26 17:44 | 6.35900 | -44.16730 | 39947 ft | 479 kts | 33° |
| 2026-04-26 17:44 | 6.41590 | -44.13232 | 39944 ft | 479 kts | 33° |
| 2026-04-26 17:45 | 6.47274 | -44.09738 | 39945 ft | 478 kts | 33° |
| 2026-04-26 17:45 | 6.52948 | -44.06248 | 39945 ft | 478 kts | 33° |
| 2026-04-26 17:46 | 6.58620 | -44.02759 | 39944 ft | 479 kts | 33° |
| 2026-04-26 17:46 | 6.64305 | -43.99262 | 39947 ft | 478 kts | 33° |
| 2026-04-26 17:47 | 6.68102 | -43.96925 | 39941 ft | 478 kts | 33° |
| 2026-04-26 17:47 | 6.75654 | -43.92276 | 39941 ft | 478 kts | 33° |
| 2026-04-26 17:48 | 6.81338 | -43.88776 | 39940 ft | 478 kts | 33° |
| 2026-04-26 17:48 | 6.87013 | -43.85280 | 39941 ft | 478 kts | 33° |
| 2026-04-26 17:49 | 6.92690 | -43.81783 | 39942 ft | 479 kts | 33° |
| 2026-04-26 17:49 | 6.98370 | -43.78282 | 39942 ft | 479 kts | 33° |
| 2026-04-26 17:50 | 7.04045 | -43.74784 | 39948 ft | 479 kts | 33° |
| 2026-04-26 17:50 | 7.09734 | -43.71275 | 39948 ft | 479 kts | 33° |
| 2026-04-26 17:51 | 7.15404 | -43.67778 | 39949 ft | 478 kts | 33° |
| 2026-04-26 17:51 | 7.21074 | -43.64280 | 39947 ft | 478 kts | 33° |
| 2026-04-26 17:52 | 7.26755 | -43.60773 | 39951 ft | 478 kts | 33° |
| 2026-04-26 17:52 | 7.32431 | -43.57269 | 39951 ft | 479 kts | 33° |
| 2026-04-26 17:53 | 7.38074 | -43.53785 | 39952 ft | 479 kts | 33° |
| 2026-04-26 17:54 | 7.46625 | -43.48500 | 39952 ft | 478 kts | 33° |
| 2026-04-26 17:54 | 7.52295 | -43.44997 | 39952 ft | 478 kts | 33° |
| 2026-04-26 17:55 | 7.57010 | -43.42081 | 39955 ft | 478 kts | 33° |
| 2026-04-26 17:55 | 7.62682 | -43.38575 | 39957 ft | 478 kts | 33° |
| 2026-04-26 17:56 | 7.68350 | -43.35068 | 39953 ft | 478 kts | 33° |
| 2026-04-26 17:57 | 7.79690 | -43.28050 | 39957 ft | 478 kts | 33° |
| 2026-04-26 17:57 | 7.85351 | -43.24544 | 39955 ft | 478 kts | 33° |
| 2026-04-26 17:58 | 7.96689 | -43.17520 | 39957 ft | 478 kts | 33° |
| 2026-04-26 17:59 | 8.05148 | -43.12277 | 39955 ft | 478 kts | 33° |
| 2026-04-26 17:59 | 8.10854 | -43.08738 | 39952 ft | 478 kts | 33° |
| 2026-04-26 18:00 | 8.16516 | -43.05227 | 39958 ft | 478 kts | 33° |
| 2026-04-26 18:00 | 8.22176 | -43.01714 | 39957 ft | 478 kts | 33° |
| 2026-04-26 18:01 | 8.27822 | -42.98210 | 39956 ft | 478 kts | 33° |
| 2026-04-26 18:01 | 8.33493 | -42.94688 | 39952 ft | 477 kts | 33° |
| 2026-04-26 18:02 | 8.38199 | -42.91766 | 39958 ft | 477 kts | 33° |
| 2026-04-26 18:02 | 8.44808 | -42.87659 | 39958 ft | 478 kts | 33° |
| 2026-04-26 18:03 | 8.50471 | -42.84139 | 39954 ft | 478 kts | 33° |
| 2026-04-26 18:03 | 8.56133 | -42.80618 | 39956 ft | 478 kts | 33° |
| 2026-04-26 18:04 | 8.61794 | -42.77096 | 39957 ft | 478 kts | 33° |
| 2026-04-26 18:05 | 8.70284 | -42.71813 | 39961 ft | 478 kts | 33° |
| 2026-04-26 18:05 | 8.75914 | -42.68308 | 39960 ft | 478 kts | 33° |
| 2026-04-26 18:06 | 8.81615 | -42.64757 | 39960 ft | 479 kts | 33° |
| 2026-04-26 18:06 | 8.87291 | -42.61221 | 39961 ft | 479 kts | 33° |
| 2026-04-26 18:07 | 8.92957 | -42.57690 | 39961 ft | 479 kts | 32° |
| 2026-04-26 18:07 | 8.98629 | -42.54153 | 39958 ft | 479 kts | 33° |
| 2026-04-26 18:08 | 9.04301 | -42.50615 | 39962 ft | 479 kts | 32° |
| 2026-04-26 18:08 | 9.09978 | -42.47073 | 39963 ft | 479 kts | 32° |
| 2026-04-26 18:09 | 9.15651 | -42.43531 | 39960 ft | 480 kts | 32° |
| 2026-04-26 18:09 | 9.21334 | -42.39983 | 39966 ft | 480 kts | 32° |
| 2026-04-26 18:10 | 9.27019 | -42.36431 | 39963 ft | 480 kts | 32° |
| 2026-04-26 18:10 | 9.32695 | -42.32885 | 39963 ft | 480 kts | 32° |
| 2026-04-26 18:11 | 9.38377 | -42.29332 | 39961 ft | 480 kts | 32° |
| 2026-04-26 18:11 | 9.44070 | -42.25773 | 39966 ft | 480 kts | 32° |
| 2026-04-26 18:12 | 9.49754 | -42.22215 | 39964 ft | 480 kts | 32° |
| 2026-04-26 18:12 | 9.55439 | -42.18657 | 39966 ft | 481 kts | 32° |
| 2026-04-26 18:13 | 9.61094 | -42.15116 | 39965 ft | 481 kts | 32° |
| 2026-04-26 18:13 | 9.66780 | -42.11555 | 39965 ft | 481 kts | 33° |
| 2026-04-26 18:14 | 9.72479 | -42.07984 | 39967 ft | 481 kts | 32° |
| 2026-04-26 18:14 | 9.78174 | -42.04413 | 39969 ft | 482 kts | 32° |
| 2026-04-26 18:15 | 9.83884 | -42.00832 | 39969 ft | 483 kts | 32° |
| 2026-04-26 18:15 | 9.89603 | -41.97244 | 39971 ft | 483 kts | 32° |
| 2026-04-26 18:16 | 9.95327 | -41.93651 | 39974 ft | 484 kts | 32° |
| 2026-04-26 18:16 | 10.03907 | -41.88263 | 39974 ft | 484 kts | 32° |
| 2026-04-26 18:17 | 10.09636 | -41.84663 | 39973 ft | 484 kts | 32° |
| 2026-04-26 18:17 | 10.15362 | -41.81063 | 39975 ft | 484 kts | 32° |
| 2026-04-26 18:18 | 10.21058 | -41.77482 | 39977 ft | 485 kts | 32° |
| 2026-04-26 18:18 | 10.26832 | -41.73849 | 39977 ft | 485 kts | 32° |
| 2026-04-26 18:19 | 10.32529 | -41.70263 | 39974 ft | 486 kts | 32° |
| 2026-04-26 18:19 | 10.38278 | -41.66643 | 39976 ft | 486 kts | 32° |
| 2026-04-26 18:20 | 10.44022 | -41.63024 | 39978 ft | 486 kts | 32° |
| 2026-04-26 18:20 | 10.48840 | -41.59988 | 39977 ft | 486 kts | 32° |
| 2026-04-26 18:21 | 10.55511 | -41.55782 | 39975 ft | 486 kts | 32° |
| 2026-04-26 18:21 | 10.61266 | -41.52152 | 39974 ft | 487 kts | 32° |
| 2026-04-26 18:22 | 10.67024 | -41.48518 | 39976 ft | 487 kts | 32° |
| 2026-04-26 18:22 | 10.72777 | -41.44886 | 39981 ft | 487 kts | 32° |
| 2026-04-26 18:23 | 10.78525 | -41.41255 | 39983 ft | 487 kts | 32° |
| 2026-04-26 18:23 | 10.84287 | -41.37613 | 39983 ft | 487 kts | 32° |
| 2026-04-26 18:24 | 10.90035 | -41.33979 | 39981 ft | 487 kts | 32° |
| 2026-04-26 18:24 | 10.95792 | -41.30338 | 39982 ft | 488 kts | 32° |
| 2026-04-26 18:25 | 11.01564 | -41.26686 | 39983 ft | 488 kts | 32° |
| 2026-04-26 18:25 | 11.07325 | -41.23038 | 39985 ft | 488 kts | 32° |
| 2026-04-26 18:26 | 11.13094 | -41.19384 | 39986 ft | 488 kts | 32° |
| 2026-04-26 18:26 | 11.18852 | -41.15735 | 39987 ft | 488 kts | 32° |
| 2026-04-26 18:27 | 11.24622 | -41.12077 | 39988 ft | 489 kts | 32° |
| 2026-04-26 18:27 | 11.30401 | -41.08410 | 39987 ft | 489 kts | 32° |
| 2026-04-26 18:28 | 11.36176 | -41.04746 | 39987 ft | 489 kts | 32° |
| 2026-04-26 18:28 | 11.41953 | -41.01078 | 39990 ft | 490 kts | 32° |
| 2026-04-26 18:29 | 11.47741 | -40.97402 | 39987 ft | 490 kts | 32° |
| 2026-04-26 18:29 | 11.53516 | -40.93731 | 39994 ft | 489 kts | 32° |
| 2026-04-26 18:30 | 11.59309 | -40.90048 | 39989 ft | 490 kts | 32° |
| 2026-04-26 18:30 | 11.65044 | -40.86399 | 39992 ft | 490 kts | 32° |
| 2026-04-26 18:31 | 11.70825 | -40.82719 | 39993 ft | 490 kts | 32° |
| 2026-04-26 18:31 | 11.76606 | -40.79038 | 39994 ft | 490 kts | 32° |
| 2026-04-26 18:32 | 11.82391 | -40.75352 | 39997 ft | 490 kts | 32° |
| 2026-04-26 18:32 | 11.88177 | -40.71664 | 39999 ft | 490 kts | 32° |
| 2026-04-26 18:33 | 11.93954 | -40.67979 | 39999 ft | 490 kts | 32° |
| 2026-04-26 18:33 | 11.99745 | -40.64285 | 40000 ft | 490 kts | 32° |
| 2026-04-26 18:34 | 12.05533 | -40.60589 | 40000 ft | 490 kts | 32° |
| 2026-04-26 18:34 | 12.11312 | -40.56897 | 40003 ft | 490 kts | 32° |
| 2026-04-26 18:35 | 12.17101 | -40.53198 | 40001 ft | 490 kts | 32° |
| 2026-04-26 18:35 | 12.22883 | -40.49501 | 40003 ft | 490 kts | 32° |
| 2026-04-26 18:36 | 12.28665 | -40.45802 | 40007 ft | 490 kts | 32° |
| 2026-04-26 18:36 | 12.34447 | -40.42101 | 40007 ft | 490 kts | 32° |
| 2026-04-26 18:37 | 12.40227 | -40.38399 | 40010 ft | 490 kts | 32° |
| 2026-04-26 18:37 | 12.45995 | -40.34703 | 40010 ft | 490 kts | 32° |
| 2026-04-26 18:38 | 12.51783 | -40.30992 | 40011 ft | 490 kts | 32° |
| 2026-04-26 18:38 | 12.57557 | -40.27289 | 40010 ft | 490 kts | 32° |
| 2026-04-26 18:39 | 12.63293 | -40.23607 | 40009 ft | 490 kts | 32° |
| 2026-04-26 18:39 | 12.68129 | -40.20502 | 40009 ft | 490 kts | 32° |
| 2026-04-26 18:40 | 12.74846 | -40.16186 | 40014 ft | 490 kts | 32° |
| 2026-04-26 18:40 | 12.80626 | -40.12471 | 40013 ft | 490 kts | 32° |
| 2026-04-26 18:41 | 12.85466 | -40.09358 | 40016 ft | 490 kts | 32° |
| 2026-04-26 18:41 | 12.91230 | -40.05649 | 40016 ft | 490 kts | 32° |
| 2026-04-26 18:42 | 12.96998 | -40.01935 | 40017 ft | 490 kts | 32° |
| 2026-04-26 18:42 | 13.02826 | -39.98319 | 40014 ft | 489 kts | 31° |
| 2026-04-26 18:43 | 13.08640 | -39.94687 | 40020 ft | 490 kts | 31° |
| 2026-04-26 18:43 | 13.14473 | -39.91151 | 40020 ft | 490 kts | 30° |
| 2026-04-26 18:44 | 13.20357 | -39.87527 | 40021 ft | 490 kts | 31° |
| 2026-04-26 18:44 | 13.26210 | -39.83945 | 40022 ft | 490 kts | 30° |
| 2026-04-26 18:45 | 13.32062 | -39.80352 | 40022 ft | 490 kts | 31° |
| 2026-04-26 18:45 | 13.37870 | -39.76785 | 40026 ft | 490 kts | 30° |
| 2026-04-26 18:46 | 13.43751 | -39.73174 | 40024 ft | 490 kts | 30° |
| 2026-04-26 18:46 | 13.49568 | -39.69596 | 40027 ft | 491 kts | 30° |
| 2026-04-26 18:47 | 13.55430 | -39.65992 | 40028 ft | 491 kts | 30° |
| 2026-04-26 18:47 | 13.61298 | -39.62381 | 40029 ft | 491 kts | 30° |
| 2026-04-26 18:48 | 13.67165 | -39.58768 | 40028 ft | 492 kts | 30° |
| 2026-04-26 18:48 | 13.73030 | -39.55154 | 40031 ft | 492 kts | 30° |
| 2026-04-26 18:49 | 13.78945 | -39.51508 | 40031 ft | 493 kts | 30° |
| 2026-04-26 18:49 | 13.84824 | -39.47881 | 40031 ft | 493 kts | 30° |
| 2026-04-26 18:50 | 13.90720 | -39.44243 | 40034 ft | 493 kts | 30° |
| 2026-04-26 18:50 | 13.96598 | -39.40612 | 40036 ft | 493 kts | 30° |
| 2026-04-26 18:51 | 14.02487 | -39.36973 | 40035 ft | 493 kts | 30° |
| 2026-04-26 18:51 | 14.08375 | -39.33332 | 40039 ft | 493 kts | 30° |
| 2026-04-26 18:52 | 14.14252 | -39.29696 | 40041 ft | 493 kts | 30° |
| 2026-04-26 18:52 | 14.20130 | -39.26057 | 40042 ft | 493 kts | 30° |
| 2026-04-26 18:53 | 14.26015 | -39.22411 | 40039 ft | 493 kts | 30° |
| 2026-04-26 18:53 | 14.31885 | -39.18773 | 40040 ft | 493 kts | 30° |
| 2026-04-26 18:54 | 14.37724 | -39.15151 | 40043 ft | 492 kts | 30° |
| 2026-04-26 18:54 | 14.43590 | -39.11511 | 40041 ft | 492 kts | 30° |
| 2026-04-26 18:55 | 14.49457 | -39.07867 | 40042 ft | 492 kts | 30° |
| 2026-04-26 18:55 | 14.55354 | -39.04203 | 40044 ft | 492 kts | 29° |
| 2026-04-26 18:56 | 14.61175 | -39.00584 | 40045 ft | 492 kts | 29° |
| 2026-04-26 18:56 | 14.67035 | -38.96937 | 40045 ft | 492 kts | 29° |
| 2026-04-26 18:57 | 14.71941 | -38.93883 | 40046 ft | 492 kts | 29° |
| 2026-04-26 18:57 | 14.78756 | -38.89638 | 40048 ft | 492 kts | 29° |
| 2026-04-26 18:58 | 14.84617 | -38.85985 | 40050 ft | 492 kts | 29° |
| 2026-04-26 18:58 | 14.90473 | -38.82332 | 40049 ft | 492 kts | 29° |
| 2026-04-26 18:59 | 14.96339 | -38.78670 | 40051 ft | 492 kts | 29° |
| 2026-04-26 18:59 | 15.02204 | -38.75007 | 40054 ft | 492 kts | 29° |
| 2026-04-26 19:00 | 15.08060 | -38.71347 | 40053 ft | 492 kts | 29° |
| 2026-04-26 19:00 | 15.13927 | -38.67678 | 40058 ft | 492 kts | 29° |
| 2026-04-26 19:01 | 15.19791 | -38.64009 | 40057 ft | 492 kts | 29° |
| 2026-04-26 19:01 | 15.25652 | -38.60339 | 40056 ft | 493 kts | 29° |
| 2026-04-26 19:02 | 15.31515 | -38.56665 | 40055 ft | 492 kts | 29° |
| 2026-04-26 19:02 | 15.36415 | -38.53592 | 40057 ft | 492 kts | 29° |
| 2026-04-26 19:03 | 15.43229 | -38.49317 | 40054 ft | 493 kts | 29° |
| 2026-04-26 19:03 | 15.49102 | -38.45630 | 40059 ft | 493 kts | 29° |
| 2026-04-26 19:04 | 15.54982 | -38.41936 | 40061 ft | 494 kts | 29° |
| 2026-04-26 19:04 | 15.60858 | -38.38241 | 40059 ft | 494 kts | 29° |
| 2026-04-26 19:05 | 15.69658 | -38.32704 | 40059 ft | 493 kts | 29° |
| 2026-04-26 19:06 | 15.75515 | -38.29015 | 40060 ft | 492 kts | 29° |
| 2026-04-26 19:06 | 15.81374 | -38.25322 | 40059 ft | 492 kts | 29° |
| 2026-04-26 19:07 | 15.87224 | -38.21634 | 40063 ft | 492 kts | 29° |
| 2026-04-26 19:07 | 15.93081 | -38.17937 | 40065 ft | 493 kts | 29° |
| 2026-04-26 19:08 | 15.98953 | -38.14229 | 40067 ft | 495 kts | 29° |
| 2026-04-26 19:08 | 16.04807 | -38.10530 | 40072 ft | 496 kts | 29° |
| 2026-04-26 19:09 | 16.10688 | -38.06810 | 40066 ft | 495 kts | 29° |
| 2026-04-26 19:09 | 16.16563 | -38.03092 | 40068 ft | 494 kts | 29° |
| 2026-04-26 19:10 | 16.22428 | -37.99378 | 40068 ft | 494 kts | 28° |
| 2026-04-26 19:10 | 16.28301 | -37.95656 | 40071 ft | 494 kts | 28° |
| 2026-04-26 19:11 | 16.34174 | -37.91932 | 40072 ft | 494 kts | 28° |
| 2026-04-26 19:11 | 16.40053 | -37.88201 | 40072 ft | 495 kts | 28° |
| 2026-04-26 19:12 | 16.45936 | -37.84465 | 40071 ft | 496 kts | 28° |
| 2026-04-26 19:12 | 16.51831 | -37.80717 | 40072 ft | 496 kts | 28° |
| 2026-04-26 19:13 | 16.57715 | -37.76976 | 40073 ft | 495 kts | 28° |
| 2026-04-26 19:13 | 16.63591 | -37.73235 | 40074 ft | 494 kts | 28° |
| 2026-04-26 19:14 | 16.69456 | -37.69500 | 40073 ft | 494 kts | 28° |
| 2026-04-26 19:14 | 16.75321 | -37.65762 | 40076 ft | 494 kts | 28° |
| 2026-04-26 19:15 | 16.81194 | -37.62016 | 40082 ft | 496 kts | 28° |
| 2026-04-26 19:15 | 16.87085 | -37.58255 | 40079 ft | 497 kts | 28° |
| 2026-04-26 19:16 | 16.92985 | -37.54486 | 40082 ft | 497 kts | 28° |
| 2026-04-26 19:16 | 16.98839 | -37.50744 | 40077 ft | 497 kts | 28° |
| 2026-04-26 19:17 | 17.04422 | -37.46408 | 40073 ft | 500 kts | 35° |
| 2026-04-26 19:17 | 17.09920 | -37.41904 | 40081 ft | 499 kts | 35° |
| 2026-04-26 19:18 | 17.15398 | -37.37446 | 40080 ft | 499 kts | 35° |
| 2026-04-26 19:18 | 17.20874 | -37.32963 | 40087 ft | 500 kts | 35° |
| 2026-04-26 19:19 | 17.26357 | -37.28486 | 40083 ft | 500 kts | 35° |
| 2026-04-26 19:19 | 17.31801 | -37.24028 | 40085 ft | 500 kts | 35° |
| 2026-04-26 19:20 | 17.37281 | -37.19543 | 40085 ft | 501 kts | 35° |
| 2026-04-26 19:20 | 17.42767 | -37.15045 | 40085 ft | 501 kts | 35° |
| 2026-04-26 19:21 | 17.48261 | -37.10540 | 40086 ft | 501 kts | 35° |
| 2026-04-26 19:21 | 17.53708 | -37.06069 | 40088 ft | 500 kts | 35° |
| 2026-04-26 19:22 | 17.59217 | -37.01544 | 40088 ft | 501 kts | 35° |
| 2026-04-26 19:22 | 17.64699 | -36.97037 | 40088 ft | 501 kts | 35° |
| 2026-04-26 19:23 | 17.70180 | -36.92528 | 40090 ft | 501 kts | 35° |
| 2026-04-26 19:23 | 17.75662 | -36.88014 | 40091 ft | 501 kts | 35° |
| 2026-04-26 19:24 | 17.81156 | -36.83486 | 40091 ft | 502 kts | 34° |
| 2026-04-26 19:24 | 17.89400 | -36.76686 | 40099 ft | 502 kts | 34° |
| 2026-04-26 19:25 | 17.93067 | -36.73658 | 40096 ft | 502 kts | 34° |
| 2026-04-26 19:25 | 17.99450 | -36.68384 | 40097 ft | 501 kts | 34° |
| 2026-04-26 19:26 | 18.04965 | -36.63824 | 40093 ft | 501 kts | 34° |
| 2026-04-26 19:26 | 18.10439 | -36.59293 | 40097 ft | 501 kts | 34° |
| 2026-04-26 19:27 | 18.15906 | -36.54764 | 40097 ft | 501 kts | 34° |
| 2026-04-26 19:27 | 18.21395 | -36.50214 | 40102 ft | 502 kts | 34° |
| 2026-04-26 19:28 | 18.26890 | -36.45655 | 40102 ft | 504 kts | 34° |
| 2026-04-26 19:28 | 18.32403 | -36.41077 | 40101 ft | 505 kts | 34° |
| 2026-04-26 19:29 | 18.37910 | -36.36500 | 40105 ft | 504 kts | 34° |
| 2026-04-26 19:29 | 18.43412 | -36.31924 | 40101 ft | 504 kts | 34° |
| 2026-04-26 19:30 | 18.48906 | -36.27350 | 40107 ft | 503 kts | 34° |
| 2026-04-26 19:30 | 18.53473 | -36.23546 | 40107 ft | 503 kts | 34° |
| 2026-04-26 19:31 | 18.59860 | -36.18220 | 40105 ft | 504 kts | 34° |
| 2026-04-26 19:31 | 18.65365 | -36.13625 | 40109 ft | 506 kts | 34° |
| 2026-04-26 19:32 | 18.70881 | -36.09018 | 40107 ft | 506 kts | 34° |
| 2026-04-26 19:32 | 18.76387 | -36.04415 | 40111 ft | 505 kts | 34° |
| 2026-04-26 19:33 | 18.81899 | -35.99802 | 40112 ft | 504 kts | 34° |
| 2026-04-26 19:33 | 18.87392 | -35.95203 | 40114 ft | 504 kts | 34° |
| 2026-04-26 19:34 | 18.92883 | -35.90601 | 40115 ft | 505 kts | 34° |
| 2026-04-26 19:34 | 18.98390 | -35.85981 | 40113 ft | 505 kts | 34° |
| 2026-04-26 19:35 | 19.03889 | -35.81363 | 40110 ft | 505 kts | 34° |
| 2026-04-26 19:35 | 19.09384 | -35.76745 | 40111 ft | 504 kts | 34° |
| 2026-04-26 19:36 | 19.13991 | -35.72872 | 40112 ft | 505 kts | 34° |
| 2026-04-26 19:36 | 19.20380 | -35.67493 | 40116 ft | 506 kts | 33° |
| 2026-04-26 19:37 | 19.25887 | -35.62853 | 40119 ft | 506 kts | 33° |
| 2026-04-26 19:37 | 19.31404 | -35.58201 | 40116 ft | 507 kts | 33° |
| 2026-04-26 19:38 | 19.36927 | -35.53539 | 40118 ft | 508 kts | 33° |
| 2026-04-26 19:38 | 19.42449 | -35.48873 | 40117 ft | 508 kts | 33° |
| 2026-04-26 19:39 | 19.47970 | -35.44205 | 40117 ft | 507 kts | 33° |
| 2026-04-26 19:39 | 19.53480 | -35.39542 | 40121 ft | 506 kts | 33° |
| 2026-04-26 19:40 | 19.58982 | -35.34882 | 40124 ft | 507 kts | 33° |
| 2026-04-26 19:40 | 19.64503 | -35.30201 | 40125 ft | 508 kts | 33° |
| 2026-04-26 19:41 | 19.70025 | -35.25515 | 40124 ft | 510 kts | 33° |
| 2026-04-26 19:41 | 19.74632 | -35.21602 | 40124 ft | 510 kts | 33° |
| 2026-04-26 19:42 | 19.81099 | -35.16104 | 40126 ft | 509 kts | 33° |
| 2026-04-26 19:42 | 19.86633 | -35.11395 | 40126 ft | 509 kts | 33° |
| 2026-04-26 19:43 | 19.92164 | -35.06684 | 40132 ft | 509 kts | 33° |
| 2026-04-26 19:43 | 19.97696 | -35.01967 | 40131 ft | 510 kts | 33° |
| 2026-04-26 19:44 | 20.02800 | -34.96670 | 40117 ft | 519 kts | 43° |
| 2026-04-26 19:44 | 20.07590 | -34.90923 | 40116 ft | 519 kts | 43° |
| 2026-04-26 19:45 | 20.12382 | -34.85199 | 40127 ft | 518 kts | 43° |
| 2026-04-26 19:45 | 20.17170 | -34.79458 | 40128 ft | 518 kts | 43° |
| 2026-04-26 19:46 | 20.21950 | -34.73728 | 40129 ft | 518 kts | 43° |
| 2026-04-26 19:46 | 20.26736 | -34.67982 | 40141 ft | 518 kts | 43° |
| 2026-04-26 19:47 | 20.30704 | -34.63214 | 40134 ft | 519 kts | 43° |
| 2026-04-26 19:47 | 20.36304 | -34.56479 | 40135 ft | 519 kts | 43° |
| 2026-04-26 19:48 | 20.41090 | -34.50717 | 40139 ft | 519 kts | 43° |
| 2026-04-26 19:48 | 20.45877 | -34.44947 | 40140 ft | 520 kts | 43° |
| 2026-04-26 19:49 | 20.50672 | -34.39162 | 40134 ft | 521 kts | 43° |
| 2026-04-26 19:49 | 20.55438 | -34.33407 | 40138 ft | 520 kts | 43° |
| 2026-04-26 19:50 | 20.60256 | -34.27581 | 40135 ft | 520 kts | 43° |
| 2026-04-26 19:50 | 20.65040 | -34.21791 | 40141 ft | 520 kts | 43° |
| 2026-04-26 19:51 | 20.69825 | -34.15995 | 40137 ft | 520 kts | 42° |
| 2026-04-26 19:51 | 20.74601 | -34.10202 | 40141 ft | 520 kts | 42° |
| 2026-04-26 19:52 | 20.79388 | -34.04391 | 40139 ft | 520 kts | 42° |
| 2026-04-26 19:52 | 20.84166 | -33.98584 | 40141 ft | 520 kts | 42° |
| 2026-04-26 19:53 | 20.88917 | -33.92805 | 40140 ft | 521 kts | 42° |
| 2026-04-26 19:53 | 20.93698 | -33.86982 | 40145 ft | 521 kts | 42° |
| 2026-04-26 19:54 | 20.98510 | -33.81116 | 40143 ft | 521 kts | 42° |
| 2026-04-26 19:54 | 21.03286 | -33.75288 | 40142 ft | 520 kts | 42° |
| 2026-04-26 19:55 | 21.08054 | -33.69464 | 40141 ft | 520 kts | 42° |
| 2026-04-26 19:55 | 21.12826 | -33.63628 | 40140 ft | 521 kts | 42° |
| 2026-04-26 19:56 | 21.17605 | -33.57776 | 40143 ft | 521 kts | 42° |
| 2026-04-26 19:56 | 21.22370 | -33.51936 | 40144 ft | 521 kts | 42° |
| 2026-04-26 19:57 | 21.27130 | -33.46097 | 40150 ft | 521 kts | 42° |
| 2026-04-26 19:57 | 21.31896 | -33.40243 | 40148 ft | 520 kts | 42° |
| 2026-04-26 19:58 | 21.36645 | -33.34404 | 40145 ft | 520 kts | 42° |
| 2026-04-26 19:58 | 21.41370 | -33.28589 | 40135 ft | 520 kts | 42° |
| 2026-04-26 19:59 | 21.46121 | -33.22735 | 40138 ft | 520 kts | 42° |
| 2026-04-26 19:59 | 21.50907 | -33.16832 | 40141 ft | 520 kts | 42° |
| 2026-04-26 20:00 | 21.55650 | -33.10974 | 40148 ft | 520 kts | 42° |
| 2026-04-26 20:00 | 21.60395 | -33.05109 | 40151 ft | 520 kts | 42° |
| 2026-04-26 20:01 | 21.65114 | -32.99269 | 40151 ft | 521 kts | 42° |
| 2026-04-26 20:01 | 21.69893 | -32.93348 | 40153 ft | 520 kts | 41° |
| 2026-04-26 20:02 | 21.74598 | -32.87513 | 40151 ft | 520 kts | 41° |
| 2026-04-26 20:02 | 21.77764 | -32.83583 | 40154 ft | 519 kts | 41° |
| 2026-04-26 20:03 | 21.84079 | -32.75735 | 40154 ft | 518 kts | 41° |
| 2026-04-26 20:03 | 21.88799 | -32.69861 | 40162 ft | 517 kts | 41° |
| 2026-04-26 20:04 | 21.93469 | -32.64044 | 40158 ft | 517 kts | 41° |
| 2026-04-26 20:04 | 21.98171 | -32.58182 | 40159 ft | 518 kts | 41° |
| 2026-04-26 20:05 | 22.02913 | -32.52261 | 40154 ft | 518 kts | 41° |
| 2026-04-26 20:05 | 22.07613 | -32.46386 | 40149 ft | 517 kts | 41° |
| 2026-04-26 20:06 | 22.12273 | -32.40555 | 40155 ft | 517 kts | 41° |
| 2026-04-26 20:06 | 22.16965 | -32.34679 | 40157 ft | 517 kts | 41° |
| 2026-04-26 20:07 | 22.21655 | -32.28797 | 40157 ft | 517 kts | 41° |
| 2026-04-26 20:07 | 22.26341 | -32.22914 | 40157 ft | 516 kts | 41° |
| 2026-04-26 20:08 | 22.30229 | -32.18028 | 40161 ft | 516 kts | 41° |
| 2026-04-26 20:08 | 22.34936 | -32.12107 | 40162 ft | 516 kts | 41° |
| 2026-04-26 20:09 | 22.39575 | -32.06264 | 40165 ft | 516 kts | 41° |
| 2026-04-26 20:09 | 22.44274 | -32.00339 | 40163 ft | 515 kts | 41° |
| 2026-04-26 20:10 | 22.48900 | -31.94500 | 40162 ft | 516 kts | 41° |
| 2026-04-26 20:10 | 22.53562 | -31.88609 | 40164 ft | 516 kts | 41° |
| 2026-04-26 20:11 | 22.58224 | -31.82711 | 40164 ft | 515 kts | 41° |
| 2026-04-26 20:12 | 22.65196 | -31.73878 | 40167 ft | 515 kts | 41° |
| 2026-04-26 20:12 | 22.69848 | -31.67976 | 40160 ft | 515 kts | 41° |
| 2026-04-26 20:13 | 22.74500 | -31.62067 | 40169 ft | 515 kts | 41° |
| 2026-04-26 20:13 | 22.79149 | -31.56156 | 40168 ft | 516 kts | 41° |
| 2026-04-26 20:14 | 22.83799 | -31.50235 | 40171 ft | 516 kts | 41° |
| 2026-04-26 20:14 | 22.88446 | -31.44313 | 40167 ft | 516 kts | 41° |
| 2026-04-26 20:15 | 22.93097 | -31.38377 | 40171 ft | 516 kts | 41° |
| 2026-04-26 20:15 | 22.97745 | -31.32439 | 40168 ft | 516 kts | 41° |
| 2026-04-26 20:16 | 23.02393 | -31.26494 | 40173 ft | 517 kts | 41° |
| 2026-04-26 20:16 | 23.07040 | -31.20544 | 40173 ft | 516 kts | 41° |
| 2026-04-26 20:17 | 23.11682 | -31.14592 | 40172 ft | 517 kts | 41° |
| 2026-04-26 20:17 | 23.16329 | -31.08628 | 40171 ft | 517 kts | 41° |
| 2026-04-26 20:18 | 23.20966 | -31.02668 | 40156 ft | 517 kts | 41° |
| 2026-04-26 20:18 | 23.25604 | -30.96702 | 40172 ft | 517 kts | 41° |
| 2026-04-26 20:19 | 23.30245 | -30.90725 | 40172 ft | 517 kts | 41° |
| 2026-04-26 20:19 | 23.34884 | -30.84741 | 40173 ft | 517 kts | 41° |
| 2026-04-26 20:20 | 23.39523 | -30.78752 | 40171 ft | 518 kts | 41° |
| 2026-04-26 20:20 | 23.44153 | -30.72766 | 40177 ft | 517 kts | 41° |
| 2026-04-26 20:21 | 23.48761 | -30.66804 | 40177 ft | 517 kts | 41° |
| 2026-04-26 20:21 | 23.53414 | -30.60773 | 40174 ft | 517 kts | 41° |
| 2026-04-26 20:22 | 23.58012 | -30.54809 | 40174 ft | 517 kts | 41° |
| 2026-04-26 20:22 | 23.62662 | -30.48768 | 40176 ft | 516 kts | 41° |
| 2026-04-26 20:23 | 23.67241 | -30.42815 | 40179 ft | 516 kts | 41° |
| 2026-04-26 20:23 | 23.71855 | -30.36806 | 40179 ft | 516 kts | 41° |
| 2026-04-26 20:24 | 23.76466 | -30.30796 | 40182 ft | 517 kts | 41° |
| 2026-04-26 20:24 | 23.81116 | -30.24727 | 40181 ft | 517 kts | 41° |
| 2026-04-26 20:25 | 23.85701 | -30.18734 | 40178 ft | 517 kts | 41° |
| 2026-04-26 20:25 | 23.90308 | -30.12707 | 40181 ft | 517 kts | 41° |
| 2026-04-26 20:26 | 23.94915 | -30.06672 | 40184 ft | 516 kts | 41° |
| 2026-04-26 20:26 | 23.99513 | -30.00642 | 40186 ft | 516 kts | 40° |
| 2026-04-26 20:27 | 24.04314 | -29.94898 | 40169 ft | 511 kts | 38° |
| 2026-04-26 20:27 | 24.09158 | -29.89139 | 40176 ft | 511 kts | 38° |
| 2026-04-26 20:28 | 24.13984 | -29.83414 | 40181 ft | 512 kts | 38° |
| 2026-04-26 20:28 | 24.18807 | -29.77674 | 40186 ft | 511 kts | 38° |
| 2026-04-26 20:29 | 24.23632 | -29.71932 | 40186 ft | 512 kts | 38° |
| 2026-04-26 20:29 | 24.28444 | -29.66195 | 40184 ft | 512 kts | 38° |
| 2026-04-26 20:30 | 24.33234 | -29.60478 | 40185 ft | 512 kts | 38° |
| 2026-04-26 20:30 | 24.38077 | -29.54690 | 40180 ft | 512 kts | 38° |
| 2026-04-26 20:31 | 24.42891 | -29.48931 | 40189 ft | 512 kts | 38° |
| 2026-04-26 20:31 | 24.47700 | -29.43170 | 40187 ft | 511 kts | 38° |
| 2026-04-26 20:32 | 24.52500 | -29.37415 | 40192 ft | 511 kts | 38° |
| 2026-04-26 20:32 | 24.57297 | -29.31654 | 40191 ft | 511 kts | 38° |
| 2026-04-26 20:33 | 24.62068 | -29.25918 | 40193 ft | 511 kts | 38° |
| 2026-04-26 20:33 | 24.66863 | -29.20146 | 40185 ft | 511 kts | 38° |
| 2026-04-26 20:34 | 24.71693 | -29.14326 | 40192 ft | 512 kts | 38° |
| 2026-04-26 20:34 | 24.76487 | -29.08540 | 40191 ft | 512 kts | 38° |
| 2026-04-26 20:35 | 24.81281 | -29.02748 | 40191 ft | 512 kts | 38° |
| 2026-04-26 20:35 | 24.86082 | -28.96941 | 40192 ft | 512 kts | 38° |
| 2026-04-26 20:36 | 24.90872 | -28.91139 | 40192 ft | 512 kts | 38° |
| 2026-04-26 20:36 | 24.95652 | -28.85343 | 40187 ft | 511 kts | 38° |
| 2026-04-26 20:37 | 25.00436 | -28.79534 | 40193 ft | 511 kts | 38° |
| 2026-04-26 20:37 | 25.05213 | -28.73726 | 40189 ft | 511 kts | 38° |
| 2026-04-26 20:38 | 25.09978 | -28.67926 | 40187 ft | 511 kts | 38° |
| 2026-04-26 20:38 | 25.14741 | -28.62121 | 40175 ft | 510 kts | 38° |
| 2026-04-26 20:39 | 25.19499 | -28.56314 | 40180 ft | 510 kts | 38° |
| 2026-04-26 20:39 | 25.24255 | -28.50503 | 40185 ft | 510 kts | 38° |
| 2026-04-26 20:40 | 25.29006 | -28.44692 | 40189 ft | 509 kts | 38° |
| 2026-04-26 20:40 | 25.33755 | -28.38875 | 40191 ft | 509 kts | 38° |
| 2026-04-26 20:41 | 25.38493 | -28.33063 | 40194 ft | 509 kts | 39° |
| 2026-04-26 20:41 | 25.43226 | -28.27251 | 40191 ft | 508 kts | 39° |
| 2026-04-26 20:42 | 25.47939 | -28.21456 | 40191 ft | 507 kts | 39° |
| 2026-04-26 20:42 | 25.52654 | -28.15652 | 40193 ft | 506 kts | 39° |
| 2026-04-26 20:43 | 25.57355 | -28.09856 | 40192 ft | 506 kts | 39° |
| 2026-04-26 20:43 | 25.62028 | -28.04088 | 40192 ft | 506 kts | 39° |
| 2026-04-26 20:44 | 25.66722 | -27.98287 | 40189 ft | 506 kts | 39° |
| 2026-04-26 20:44 | 25.71416 | -27.92480 | 40192 ft | 506 kts | 39° |
| 2026-04-26 20:45 | 25.76107 | -27.86667 | 40192 ft | 506 kts | 39° |
| 2026-04-26 20:45 | 25.80807 | -27.80836 | 40192 ft | 506 kts | 40° |
| 2026-04-26 20:46 | 25.85490 | -27.75018 | 40192 ft | 505 kts | 40° |
| 2026-04-26 20:46 | 25.90165 | -27.69204 | 40192 ft | 505 kts | 40° |
| 2026-04-26 20:47 | 25.94845 | -27.63376 | 40193 ft | 505 kts | 40° |
| 2026-04-26 20:47 | 25.99525 | -27.57540 | 40192 ft | 505 kts | 40° |
| 2026-04-26 20:48 | 26.04197 | -27.51707 | 40192 ft | 505 kts | 40° |
| 2026-04-26 20:48 | 26.08868 | -27.45866 | 40178 ft | 506 kts | 40° |
| 2026-04-26 20:49 | 26.13540 | -27.40017 | 40181 ft | 505 kts | 40° |
| 2026-04-26 20:49 | 26.18200 | -27.34175 | 40184 ft | 505 kts | 40° |
| 2026-04-26 20:50 | 26.22082 | -27.29304 | 40192 ft | 505 kts | 40° |
| 2026-04-26 20:50 | 26.26738 | -27.23454 | 40188 ft | 505 kts | 41° |
| 2026-04-26 20:51 | 26.31382 | -27.17610 | 40192 ft | 504 kts | 41° |
| 2026-04-26 20:51 | 26.36034 | -27.11750 | 40195 ft | 504 kts | 41° |
| 2026-04-26 20:52 | 26.40672 | -27.05898 | 40196 ft | 504 kts | 41° |
| 2026-04-26 20:52 | 26.45316 | -27.00033 | 40196 ft | 504 kts | 41° |
| 2026-04-26 20:53 | 26.49947 | -26.94175 | 40195 ft | 503 kts | 41° |
| 2026-04-26 20:53 | 26.54575 | -26.88314 | 40198 ft | 503 kts | 41° |
| 2026-04-26 20:54 | 26.59205 | -26.82442 | 40192 ft | 503 kts | 41° |
| 2026-04-26 20:54 | 26.63834 | -26.76565 | 40197 ft | 503 kts | 41° |
| 2026-04-26 20:55 | 26.68453 | -26.70691 | 40202 ft | 503 kts | 41° |
| 2026-04-26 20:55 | 26.73069 | -26.64813 | 40198 ft | 502 kts | 41° |
| 2026-04-26 20:56 | 26.77668 | -26.58951 | 40203 ft | 501 kts | 41° |
| 2026-04-26 20:56 | 26.82262 | -26.53085 | 40202 ft | 501 kts | 41° |
| 2026-04-26 20:57 | 26.86849 | -26.47221 | 40202 ft | 500 kts | 41° |
| 2026-04-26 20:57 | 26.91433 | -26.41353 | 40202 ft | 500 kts | 41° |
| 2026-04-26 20:58 | 26.96009 | -26.35488 | 40204 ft | 500 kts | 41° |
| 2026-04-26 20:58 | 27.00591 | -26.29607 | 40204 ft | 500 kts | 41° |
| 2026-04-26 20:59 | 27.05131 | -26.23771 | 40205 ft | 500 kts | 41° |
| 2026-04-26 20:59 | 27.09695 | -26.17898 | 40206 ft | 499 kts | 41° |
| 2026-04-26 21:00 | 27.14252 | -26.12025 | 40208 ft | 498 kts | 41° |
| 2026-04-26 21:00 | 27.18804 | -26.06152 | 40203 ft | 499 kts | 41° |
| 2026-04-26 21:01 | 27.23352 | -26.00273 | 40205 ft | 498 kts | 41° |
| 2026-04-26 21:01 | 27.27894 | -25.94397 | 40203 ft | 498 kts | 41° |
| 2026-04-26 21:02 | 27.32430 | -25.88519 | 40201 ft | 498 kts | 41° |
| 2026-04-26 21:02 | 27.36970 | -25.82629 | 40195 ft | 498 kts | 41° |
| 2026-04-26 21:03 | 27.41495 | -25.76749 | 40192 ft | 497 kts | 41° |
| 2026-04-26 21:03 | 27.45987 | -25.70906 | 40200 ft | 496 kts | 41° |
| 2026-04-26 21:04 | 27.50522 | -25.64998 | 40207 ft | 495 kts | 41° |
| 2026-04-26 21:04 | 27.55021 | -25.59129 | 40206 ft | 495 kts | 41° |
| 2026-04-26 21:05 | 27.59523 | -25.53247 | 40201 ft | 495 kts | 41° |
| 2026-04-26 21:05 | 27.64019 | -25.47366 | 40202 ft | 495 kts | 41° |
| 2026-04-26 21:06 | 27.68509 | -25.41484 | 40202 ft | 495 kts | 41° |
| 2026-04-26 21:06 | 27.72977 | -25.35623 | 40201 ft | 496 kts | 41° |
| 2026-04-26 21:07 | 27.77471 | -25.29720 | 40203 ft | 496 kts | 41° |
| 2026-04-26 21:07 | 27.81957 | -25.23819 | 40197 ft | 495 kts | 41° |
| 2026-04-26 21:08 | 27.86443 | -25.17910 | 40201 ft | 494 kts | 41° |
| 2026-04-26 21:08 | 27.90918 | -25.12007 | 40198 ft | 494 kts | 41° |
| 2026-04-26 21:09 | 27.95384 | -25.06108 | 40208 ft | 493 kts | 41° |
| 2026-04-26 21:09 | 27.99848 | -25.00199 | 40208 ft | 494 kts | 43° |
| 2026-04-26 21:10 | 28.04096 | -24.94056 | 40208 ft | 497 kts | 44° |
| 2026-04-26 21:10 | 28.08362 | -24.87888 | 40209 ft | 497 kts | 44° |
| 2026-04-26 21:11 | 28.12599 | -24.81717 | 40195 ft | 496 kts | 44° |
| 2026-04-26 21:11 | 28.16839 | -24.75557 | 40201 ft | 496 kts | 44° |
| 2026-04-26 21:12 | 28.21070 | -24.69387 | 40205 ft | 495 kts | 44° |
| 2026-04-26 21:12 | 28.25292 | -24.63229 | 40202 ft | 494 kts | 44° |
| 2026-04-26 21:13 | 28.29510 | -24.57064 | 40200 ft | 494 kts | 44° |
| 2026-04-26 21:13 | 28.33717 | -24.50908 | 40202 ft | 493 kts | 44° |
| 2026-04-26 21:14 | 28.37920 | -24.44747 | 40203 ft | 493 kts | 44° |
| 2026-04-26 21:14 | 28.42112 | -24.38596 | 40197 ft | 493 kts | 44° |
| 2026-04-26 21:15 | 28.46302 | -24.32437 | 40204 ft | 492 kts | 44° |
| 2026-04-26 21:15 | 28.50461 | -24.26315 | 40202 ft | 492 kts | 44° |
| 2026-04-26 21:16 | 28.54637 | -24.20159 | 40200 ft | 492 kts | 44° |
| 2026-04-26 21:16 | 28.58836 | -24.13960 | 40202 ft | 491 kts | 44° |
| 2026-04-26 21:17 | 28.63003 | -24.07801 | 40200 ft | 491 kts | 44° |
| 2026-04-26 21:17 | 28.67167 | -24.01634 | 40203 ft | 491 kts | 44° |
| 2026-04-26 21:18 | 28.71320 | -23.95476 | 40205 ft | 490 kts | 44° |
| 2026-04-26 21:18 | 28.75443 | -23.89354 | 40204 ft | 490 kts | 44° |
| 2026-04-26 21:19 | 28.79588 | -23.83191 | 40208 ft | 490 kts | 44° |
| 2026-04-26 21:19 | 28.83733 | -23.77017 | 40205 ft | 490 kts | 44° |
| 2026-04-26 21:20 | 28.87867 | -23.70852 | 40206 ft | 489 kts | 44° |
| 2026-04-26 21:20 | 28.92027 | -23.64638 | 40200 ft | 489 kts | 44° |
| 2026-04-26 21:21 | 28.96122 | -23.58511 | 40202 ft | 488 kts | 44° |
| 2026-04-26 21:21 | 29.00243 | -23.52338 | 40204 ft | 489 kts | 44° |
| 2026-04-26 21:22 | 29.04356 | -23.46167 | 40198 ft | 488 kts | 44° |
| 2026-04-26 21:22 | 29.08471 | -23.39985 | 40204 ft | 489 kts | 44° |
| 2026-04-26 21:23 | 29.14639 | -23.30699 | 40206 ft | 489 kts | 45° |
| 2026-04-26 21:23 | 29.18748 | -23.24502 | 40202 ft | 488 kts | 45° |
| 2026-04-26 21:24 | 29.22849 | -23.18308 | 40201 ft | 488 kts | 45° |
| 2026-04-26 21:24 | 29.26937 | -23.12125 | 40202 ft | 488 kts | 45° |
| 2026-04-26 21:25 | 29.31031 | -23.05921 | 40203 ft | 487 kts | 45° |
| 2026-04-26 21:25 | 29.35110 | -22.99733 | 40203 ft | 487 kts | 45° |
| 2026-04-26 21:26 | 29.39192 | -22.93530 | 40187 ft | 487 kts | 45° |
| 2026-04-26 21:26 | 29.43267 | -22.87330 | 40192 ft | 487 kts | 45° |
| 2026-04-26 21:27 | 29.47343 | -22.81117 | 40197 ft | 487 kts | 45° |
| 2026-04-26 21:27 | 29.51418 | -22.74897 | 40201 ft | 487 kts | 45° |
| 2026-04-26 21:28 | 29.55483 | -22.68682 | 40201 ft | 486 kts | 45° |
| 2026-04-26 21:28 | 29.59537 | -22.62475 | 40198 ft | 486 kts | 45° |
| 2026-04-26 21:29 | 29.63592 | -22.56258 | 40199 ft | 485 kts | 45° |
| 2026-04-26 21:29 | 29.67633 | -22.50052 | 40200 ft | 485 kts | 45° |
| 2026-04-26 21:30 | 29.71668 | -22.43845 | 40199 ft | 484 kts | 45° |
| 2026-04-26 21:30 | 29.75018 | -22.38687 | 40200 ft | 484 kts | 45° |
| 2026-04-26 21:31 | 29.79727 | -22.31424 | 40200 ft | 484 kts | 46° |
| 2026-04-26 21:31 | 29.83739 | -22.25224 | 40199 ft | 483 kts | 46° |
| 2026-04-26 21:32 | 29.87754 | -22.19012 | 40202 ft | 483 kts | 46° |
| 2026-04-26 21:32 | 29.91758 | -22.12806 | 40196 ft | 482 kts | 46° |
| 2026-04-26 21:33 | 29.95754 | -22.06603 | 40199 ft | 481 kts | 46° |
| 2026-04-26 21:33 | 29.99725 | -22.00414 | 40201 ft | 481 kts | 49° |
| 2026-04-26 21:34 | 30.03201 | -21.93737 | 40201 ft | 486 kts | 52° |
| 2026-04-26 21:34 | 30.06644 | -21.87036 | 40188 ft | 485 kts | 52° |
| 2026-04-26 21:35 | 30.09486 | -21.81457 | 40191 ft | 485 kts | 52° |
| 2026-04-26 21:35 | 30.12912 | -21.74747 | 40198 ft | 485 kts | 52° |
| 2026-04-26 21:36 | 30.16329 | -21.68033 | 40199 ft | 486 kts | 52° |
| 2026-04-26 21:36 | 30.19753 | -21.61297 | 40198 ft | 486 kts | 52° |
| 2026-04-26 21:37 | 30.23176 | -21.54549 | 40197 ft | 487 kts | 52° |
| 2026-04-26 21:37 | 30.26600 | -21.47789 | 40191 ft | 487 kts | 53° |
| 2026-04-26 21:38 | 30.30021 | -21.41025 | 40195 ft | 487 kts | 53° |
| 2026-04-26 21:38 | 30.33434 | -21.34263 | 40188 ft | 487 kts | 53° |
| 2026-04-26 21:39 | 30.36851 | -21.27483 | 40193 ft | 488 kts | 53° |
| 2026-04-26 21:39 | 30.40266 | -21.20695 | 40192 ft | 488 kts | 53° |
| 2026-04-26 21:40 | 30.43676 | -21.13903 | 40192 ft | 488 kts | 53° |
| 2026-04-26 21:40 | 30.47079 | -21.07116 | 40191 ft | 488 kts | 53° |
| 2026-04-26 21:41 | 30.50486 | -21.00309 | 40189 ft | 488 kts | 53° |
| 2026-04-26 21:41 | 30.53887 | -20.93501 | 40194 ft | 488 kts | 53° |
| 2026-04-26 21:42 | 30.57292 | -20.86674 | 40189 ft | 489 kts | 54° |
| 2026-04-26 21:42 | 30.60693 | -20.79843 | 40190 ft | 489 kts | 54° |
| 2026-04-26 21:43 | 30.64093 | -20.73000 | 40190 ft | 489 kts | 54° |
| 2026-04-26 21:43 | 30.67499 | -20.66136 | 40189 ft | 490 kts | 54° |
| 2026-04-26 21:44 | 30.70896 | -20.59276 | 40188 ft | 490 kts | 54° |
| 2026-04-26 21:44 | 30.74293 | -20.52404 | 40190 ft | 491 kts | 54° |
| 2026-04-26 21:45 | 30.77695 | -20.45510 | 40184 ft | 491 kts | 54° |
| 2026-04-26 21:45 | 30.81096 | -20.38607 | 40190 ft | 492 kts | 55° |
| 2026-04-26 21:46 | 30.84488 | -20.31707 | 40188 ft | 492 kts | 55° |
| 2026-04-26 21:46 | 30.87892 | -20.24774 | 40187 ft | 493 kts | 55° |
| 2026-04-26 21:47 | 30.91287 | -20.17844 | 40189 ft | 493 kts | 56° |
| 2026-04-26 21:47 | 30.94682 | -20.10903 | 40185 ft | 494 kts | 56° |
| 2026-04-26 21:48 | 30.98079 | -20.03944 | 40185 ft | 494 kts | 56° |
| 2026-04-26 21:48 | 31.01897 | -19.97391 | 40185 ft | 487 kts | 45° |
| 2026-04-26 21:49 | 31.06288 | -19.91378 | 40186 ft | 487 kts | 45° |
| 2026-04-26 21:49 | 31.10674 | -19.85340 | 40168 ft | 488 kts | 45° |
| 2026-04-26 21:50 | 31.14319 | -19.80323 | 40182 ft | 488 kts | 46° |
| 2026-04-26 21:50 | 31.19461 | -19.73233 | 40169 ft | 490 kts | 46° |
| 2026-04-26 21:51 | 31.23862 | -19.67152 | 40176 ft | 490 kts | 46° |
| 2026-04-26 21:51 | 31.28263 | -19.61062 | 40175 ft | 490 kts | 46° |
| 2026-04-26 21:52 | 31.32662 | -19.54966 | 40177 ft | 491 kts | 46° |
| 2026-04-26 21:52 | 31.37060 | -19.48861 | 40186 ft | 491 kts | 46° |
| 2026-04-26 21:53 | 31.41465 | -19.42737 | 40175 ft | 492 kts | 47° |
| 2026-04-26 21:53 | 31.45864 | -19.36611 | 40186 ft | 491 kts | 47° |
| 2026-04-26 21:54 | 31.50229 | -19.30523 | 40175 ft | 491 kts | 47° |
| 2026-04-26 21:54 | 31.54620 | -19.24390 | 40176 ft | 491 kts | 47° |
| 2026-04-26 21:55 | 31.59032 | -19.18216 | 40179 ft | 491 kts | 47° |
| 2026-04-26 21:55 | 31.63387 | -19.12112 | 40179 ft | 491 kts | 47° |
| 2026-04-26 21:56 | 31.67772 | -19.05957 | 40176 ft | 492 kts | 47° |
| 2026-04-26 21:56 | 31.72159 | -18.99789 | 40175 ft | 492 kts | 48° |
| 2026-04-26 21:57 | 31.76576 | -18.93567 | 40177 ft | 493 kts | 48° |
| 2026-04-26 21:57 | 31.80939 | -18.87413 | 40176 ft | 493 kts | 48° |
| 2026-04-26 21:58 | 31.85330 | -18.81210 | 40177 ft | 493 kts | 48° |
| 2026-04-26 21:58 | 31.89707 | -18.75014 | 40179 ft | 493 kts | 48° |
| 2026-04-26 21:59 | 31.94087 | -18.68806 | 40178 ft | 492 kts | 48° |
| 2026-04-26 21:59 | 31.98455 | -18.62603 | 40175 ft | 493 kts | 48° |
| 2026-04-26 22:00 | 32.02834 | -18.56376 | 40175 ft | 493 kts | 49° |
| 2026-04-26 22:00 | 32.07212 | -18.50139 | 40175 ft | 494 kts | 49° |
| 2026-04-26 22:01 | 32.11590 | -18.43892 | 40173 ft | 494 kts | 49° |
| 2026-04-26 22:01 | 32.15957 | -18.37650 | 40174 ft | 494 kts | 49° |
| 2026-04-26 22:02 | 32.19621 | -18.32405 | 40173 ft | 494 kts | 49° |
| 2026-04-26 22:02 | 32.24746 | -18.25156 | 40166 ft | 494 kts | 47° |
| 2026-04-26 22:03 | 32.29245 | -18.19022 | 40171 ft | 494 kts | 48° |
| 2026-04-26 22:03 | 32.33685 | -18.12804 | 40165 ft | 494 kts | 47° |
| 2026-04-26 22:04 | 32.38158 | -18.06628 | 40167 ft | 495 kts | 48° |
| 2026-04-26 22:04 | 32.42599 | -18.00426 | 40167 ft | 495 kts | 48° |
| 2026-04-26 22:05 | 32.47065 | -17.94216 | 40164 ft | 495 kts | 48° |
| 2026-04-26 22:05 | 32.51509 | -17.88003 | 40164 ft | 495 kts | 48° |
| 2026-04-26 22:06 | 32.55959 | -17.81784 | 40165 ft | 495 kts | 48° |
| 2026-04-26 22:06 | 32.60406 | -17.75553 | 40166 ft | 494 kts | 49° |
| 2026-04-26 22:07 | 32.64842 | -17.69329 | 40164 ft | 494 kts | 49° |
| 2026-04-26 22:07 | 32.68530 | -17.64145 | 40166 ft | 494 kts | 49° |
| 2026-04-26 22:08 | 32.73712 | -17.56852 | 40161 ft | 494 kts | 49° |
| 2026-04-26 22:08 | 32.78145 | -17.50599 | 40164 ft | 495 kts | 49° |
| 2026-04-26 22:09 | 32.82574 | -17.44344 | 40161 ft | 495 kts | 49° |
| 2026-04-26 22:09 | 32.87002 | -17.38077 | 40166 ft | 495 kts | 49° |
| 2026-04-26 22:10 | 32.91419 | -17.31816 | 40168 ft | 495 kts | 49° |
| 2026-04-26 22:10 | 32.95856 | -17.25517 | 40166 ft | 495 kts | 49° |
| 2026-04-26 22:11 | 33.00249 | -17.19267 | 40172 ft | 495 kts | 49° |
| 2026-04-26 22:11 | 33.04691 | -17.12939 | 40174 ft | 495 kts | 49° |
| 2026-04-26 22:12 | 33.09070 | -17.06689 | 40177 ft | 495 kts | 49° |
| 2026-04-26 22:12 | 33.13481 | -17.00383 | 40171 ft | 495 kts | 49° |
| 2026-04-26 22:13 | 33.17885 | -16.94076 | 40170 ft | 494 kts | 50° |
| 2026-04-26 22:13 | 33.22287 | -16.87760 | 40170 ft | 495 kts | 50° |
| 2026-04-26 22:14 | 33.26677 | -16.81451 | 40167 ft | 495 kts | 50° |
| 2026-04-26 22:14 | 33.31074 | -16.75121 | 40167 ft | 495 kts | 50° |
| 2026-04-26 22:15 | 33.35469 | -16.68783 | 40167 ft | 495 kts | 50° |
| 2026-04-26 22:15 | 33.39863 | -16.62436 | 40165 ft | 496 kts | 50° |
| 2026-04-26 22:16 | 33.44261 | -16.56071 | 40162 ft | 496 kts | 50° |
| 2026-04-26 22:16 | 33.48653 | -16.49704 | 40159 ft | 496 kts | 50° |
| 2026-04-26 22:17 | 33.53051 | -16.43317 | 40160 ft | 497 kts | 50° |
| 2026-04-26 22:17 | 33.57446 | -16.36922 | 40158 ft | 497 kts | 50° |
| 2026-04-26 22:18 | 33.61100 | -16.31598 | 40155 ft | 497 kts | 50° |
| 2026-04-26 22:18 | 33.65485 | -16.25198 | 40153 ft | 497 kts | 50° |
| 2026-04-26 22:19 | 33.69878 | -16.18776 | 40147 ft | 497 kts | 50° |
| 2026-04-26 22:19 | 33.74266 | -16.12347 | 40148 ft | 497 kts | 51° |
| 2026-04-26 22:20 | 33.78647 | -16.05919 | 40145 ft | 498 kts | 51° |
| 2026-04-26 22:20 | 33.83032 | -15.99474 | 40147 ft | 498 kts | 51° |
| 2026-04-26 22:21 | 33.87410 | -15.93027 | 40143 ft | 497 kts | 51° |
| 2026-04-26 22:21 | 33.91783 | -15.86575 | 40142 ft | 497 kts | 51° |
| 2026-04-26 22:22 | 33.96156 | -15.80112 | 40141 ft | 497 kts | 51° |
| 2026-04-26 22:22 | 34.00520 | -15.73651 | 40139 ft | 497 kts | 51° |
| 2026-04-26 22:23 | 34.04881 | -15.67183 | 40139 ft | 497 kts | 51° |
| 2026-04-26 22:23 | 34.09239 | -15.60707 | 40137 ft | 497 kts | 51° |
| 2026-04-26 22:24 | 34.13594 | -15.54225 | 40141 ft | 497 kts | 51° |
| 2026-04-26 22:24 | 34.17941 | -15.47742 | 40139 ft | 497 kts | 51° |
| 2026-04-26 22:25 | 34.22294 | -15.41238 | 40132 ft | 497 kts | 51° |
| 2026-04-26 22:25 | 34.26633 | -15.34743 | 40127 ft | 498 kts | 51° |
| 2026-04-26 22:26 | 34.30981 | -15.28224 | 40130 ft | 497 kts | 51° |
| 2026-04-26 22:26 | 34.35322 | -15.21703 | 40133 ft | 497 kts | 51° |
| 2026-04-26 22:27 | 34.39650 | -15.15189 | 40132 ft | 497 kts | 51° |
| 2026-04-26 22:27 | 34.43985 | -15.08654 | 40128 ft | 497 kts | 51° |
| 2026-04-26 22:28 | 34.48318 | -15.02108 | 40127 ft | 498 kts | 51° |
| 2026-04-26 22:28 | 34.52681 | -14.95506 | 40129 ft | 499 kts | 52° |
| 2026-04-26 22:29 | 34.57039 | -14.88899 | 40132 ft | 498 kts | 52° |
| 2026-04-26 22:29 | 34.61370 | -14.82320 | 40123 ft | 498 kts | 52° |
| 2026-04-26 22:30 | 34.65686 | -14.75751 | 40127 ft | 498 kts | 52° |
| 2026-04-26 22:30 | 34.70001 | -14.69173 | 40123 ft | 498 kts | 52° |
| 2026-04-26 22:31 | 34.74316 | -14.62581 | 40121 ft | 498 kts | 52° |
| 2026-04-26 22:31 | 34.78625 | -14.55989 | 40120 ft | 498 kts | 52° |
| 2026-04-26 22:32 | 34.82926 | -14.49394 | 40120 ft | 498 kts | 52° |
| 2026-04-26 22:32 | 34.87201 | -14.42827 | 40119 ft | 498 kts | 52° |
| 2026-04-26 22:33 | 34.93643 | -14.32909 | 40124 ft | 498 kts | 52° |
| 2026-04-26 22:34 | 34.97933 | -14.26288 | 40124 ft | 498 kts | 52° |
| 2026-04-26 22:34 | 35.02218 | -14.19664 | 40116 ft | 498 kts | 52° |
| 2026-04-26 22:35 | 35.06506 | -14.13019 | 40115 ft | 498 kts | 52° |
| 2026-04-26 22:35 | 35.10787 | -14.06376 | 40115 ft | 498 kts | 52° |
| 2026-04-26 22:36 | 35.15057 | -13.99737 | 40112 ft | 497 kts | 52° |
| 2026-04-26 22:36 | 35.19336 | -13.93070 | 40115 ft | 498 kts | 52° |
| 2026-04-26 22:37 | 35.23597 | -13.86418 | 40112 ft | 498 kts | 52° |
| 2026-04-26 22:37 | 35.27870 | -13.79736 | 40113 ft | 498 kts | 52° |
| 2026-04-26 22:38 | 35.32139 | -13.73046 | 40112 ft | 498 kts | 52° |
| 2026-04-26 22:38 | 35.36397 | -13.66362 | 40109 ft | 498 kts | 52° |
| 2026-04-26 22:39 | 35.40658 | -13.59659 | 40110 ft | 498 kts | 52° |
| 2026-04-26 22:39 | 35.44907 | -13.52963 | 40111 ft | 498 kts | 52° |
| 2026-04-26 22:40 | 35.49155 | -13.46256 | 40107 ft | 498 kts | 52° |
| 2026-04-26 22:40 | 35.53400 | -13.39540 | 40110 ft | 498 kts | 52° |
| 2026-04-26 22:41 | 35.57652 | -13.32800 | 40110 ft | 498 kts | 52° |
| 2026-04-26 22:41 | 35.61889 | -13.26072 | 40113 ft | 498 kts | 52° |
| 2026-04-26 22:42 | 35.66130 | -13.19321 | 40105 ft | 498 kts | 52° |
| 2026-04-26 22:42 | 35.70363 | -13.12573 | 40119 ft | 498 kts | 52° |
| 2026-04-26 22:43 | 35.74593 | -13.05816 | 40099 ft | 498 kts | 52° |
| 2026-04-26 22:43 | 35.78814 | -12.99058 | 40102 ft | 498 kts | 52° |
| 2026-04-26 22:44 | 35.83033 | -12.92293 | 40109 ft | 498 kts | 52° |
| 2026-04-26 22:44 | 35.87255 | -12.85508 | 40110 ft | 498 kts | 52° |
| 2026-04-26 22:45 | 35.91467 | -12.78726 | 40102 ft | 498 kts | 52° |
| 2026-04-26 22:45 | 35.95674 | -12.71939 | 40105 ft | 498 kts | 52° |
| 2026-04-26 22:46 | 35.99877 | -12.65144 | 40103 ft | 498 kts | 52° |
| 2026-04-26 22:46 | 36.04067 | -12.58330 | 40116 ft | 498 kts | 56° |
| 2026-04-26 22:46 | 36.05772 | -12.54613 | 40138 ft | 497 kts | 69° |
| 2026-04-26 22:47 | 36.06866 | -12.50576 | 40123 ft | 497 kts | 75° |
| 2026-04-26 22:47 | 36.08748 | -12.42333 | 40110 ft | 498 kts | 75° |
| 2026-04-26 22:48 | 36.10655 | -12.34105 | 40116 ft | 498 kts | 74° |
| 2026-04-26 22:48 | 36.12541 | -12.25855 | 40108 ft | 498 kts | 75° |
| 2026-04-26 22:49 | 36.14427 | -12.17622 | 40110 ft | 498 kts | 74° |
| 2026-04-26 22:49 | 36.16305 | -12.09372 | 40109 ft | 498 kts | 75° |
| 2026-04-26 22:50 | 36.18170 | -12.01159 | 40108 ft | 499 kts | 74° |
| 2026-04-26 22:50 | 36.20040 | -11.92895 | 40108 ft | 499 kts | 75° |
| 2026-04-26 22:51 | 36.21918 | -11.84567 | 40105 ft | 499 kts | 74° |
| 2026-04-26 22:51 | 36.23781 | -11.76276 | 40100 ft | 499 kts | 74° |
| 2026-04-26 22:52 | 36.25635 | -11.67991 | 40102 ft | 500 kts | 74° |
| 2026-04-26 22:52 | 36.27473 | -11.59752 | 40100 ft | 499 kts | 74° |
| 2026-04-26 22:53 | 36.29316 | -11.51463 | 40096 ft | 499 kts | 74° |
| 2026-04-26 22:53 | 36.31169 | -11.43094 | 40098 ft | 499 kts | 74° |
| 2026-04-26 22:54 | 36.32989 | -11.34846 | 40090 ft | 499 kts | 74° |
| 2026-04-26 22:54 | 36.34828 | -11.26485 | 40090 ft | 499 kts | 74° |
| 2026-04-26 22:55 | 36.36638 | -11.18223 | 40086 ft | 499 kts | 74° |
| 2026-04-26 22:55 | 36.38466 | -11.09851 | 40088 ft | 499 kts | 74° |
| 2026-04-26 22:56 | 36.40276 | -11.01530 | 40085 ft | 499 kts | 74° |
| 2026-04-26 22:56 | 36.42068 | -10.93262 | 40082 ft | 499 kts | 74° |
| 2026-04-26 22:57 | 36.43866 | -10.84935 | 40082 ft | 499 kts | 74° |
| 2026-04-26 22:57 | 36.45658 | -10.76601 | 40080 ft | 499 kts | 74° |
| 2026-04-26 22:58 | 36.47441 | -10.68283 | 40077 ft | 499 kts | 74° |
| 2026-04-26 22:58 | 36.49224 | -10.59934 | 40075 ft | 499 kts | 74° |
| 2026-04-26 22:59 | 36.50997 | -10.51599 | 40073 ft | 499 kts | 74° |
| 2026-04-26 22:59 | 36.52467 | -10.44668 | 40073 ft | 499 kts | 74° |
| 2026-04-26 23:00 | 36.54234 | -10.36305 | 40065 ft | 499 kts | 74° |
| 2026-04-26 23:00 | 36.55990 | -10.27964 | 40064 ft | 499 kts | 74° |
| 2026-04-26 23:01 | 36.57756 | -10.19542 | 40063 ft | 499 kts | 74° |
| 2026-04-26 23:01 | 36.59501 | -10.11190 | 40059 ft | 500 kts | 74° |
| 2026-04-26 23:02 | 36.61242 | -10.02820 | 40058 ft | 499 kts | 74° |
| 2026-04-26 23:02 | 36.62980 | -9.94441 | 40040 ft | 499 kts | 74° |
| 2026-04-26 23:03 | 36.64706 | -9.86081 | 40044 ft | 500 kts | 74° |
| 2026-04-26 23:03 | 36.66436 | -9.77671 | 40056 ft | 500 kts | 74° |
| 2026-04-26 23:04 | 36.68154 | -9.69289 | 40042 ft | 499 kts | 74° |
| 2026-04-26 23:04 | 36.69864 | -9.60910 | 40047 ft | 498 kts | 74° |
| 2026-04-26 23:05 | 36.71564 | -9.52553 | 40046 ft | 497 kts | 74° |
| 2026-04-26 23:05 | 36.73256 | -9.44203 | 40045 ft | 497 kts | 75° |
| 2026-04-26 23:06 | 36.74944 | -9.35838 | 40046 ft | 498 kts | 75° |
| 2026-04-26 23:06 | 36.76628 | -9.27459 | 40040 ft | 498 kts | 75° |
| 2026-04-26 23:07 | 36.78303 | -9.19093 | 40041 ft | 497 kts | 75° |
| 2026-04-26 23:07 | 36.79967 | -9.10748 | 40044 ft | 496 kts | 75° |
| 2026-04-26 23:08 | 36.81579 | -9.02630 | 40042 ft | 496 kts | 75° |
| 2026-04-26 23:08 | 36.83231 | -8.94283 | 40044 ft | 496 kts | 75° |
| 2026-04-26 23:09 | 36.84880 | -8.85914 | 40049 ft | 496 kts | 75° |
| 2026-04-26 23:09 | 36.86524 | -8.77541 | 40044 ft | 497 kts | 75° |
| 2026-04-26 23:10 | 36.88173 | -8.69106 | 40044 ft | 496 kts | 75° |
| 2026-04-26 23:10 | 36.89795 | -8.60776 | 40042 ft | 497 kts | 75° |
| 2026-04-26 23:11 | 36.91432 | -8.52335 | 40045 ft | 497 kts | 75° |
| 2026-04-26 23:11 | 36.93053 | -8.43944 | 40050 ft | 497 kts | 75° |
| 2026-04-26 23:12 | 36.94668 | -8.35550 | 40053 ft | 497 kts | 75° |
| 2026-04-26 23:12 | 36.96279 | -8.27139 | 40055 ft | 497 kts | 75° |
| 2026-04-26 23:13 | 36.97880 | -8.18749 | 40054 ft | 496 kts | 75° |
| 2026-04-26 23:13 | 36.99473 | -8.10362 | 40050 ft | 496 kts | 75° |
| 2026-04-26 23:14 | 37.01055 | -8.02005 | 40057 ft | 496 kts | 75° |
| 2026-04-26 23:14 | 37.02637 | -7.93610 | 40055 ft | 496 kts | 75° |
| 2026-04-26 23:15 | 37.04225 | -7.85151 | 40054 ft | 496 kts | 75° |
| 2026-04-26 23:15 | 37.05795 | -7.76749 | 40055 ft | 496 kts | 75° |
| 2026-04-26 23:16 | 37.07361 | -7.68331 | 40051 ft | 497 kts | 75° |
| 2026-04-26 23:16 | 37.08926 | -7.59884 | 40054 ft | 498 kts | 75° |
| 2026-04-26 23:17 | 37.10480 | -7.51465 | 40039 ft | 496 kts | 77° |
| 2026-04-26 23:17 | 37.12025 | -7.43053 | 40040 ft | 496 kts | 77° |
| 2026-04-26 23:18 | 37.13590 | -7.34567 | 40041 ft | 496 kts | 77° |
| 2026-04-26 23:18 | 37.15225 | -7.26173 | 40040 ft | 495 kts | 77° |
| 2026-04-26 23:19 | 37.17553 | -7.18107 | 40074 ft | 495 kts | 57° |
| 2026-04-26 23:19 | 37.21807 | -7.11305 | 40048 ft | 498 kts | 49° |
| 2026-04-26 23:20 | 37.26268 | -7.04654 | 40049 ft | 497 kts | 49° |
| 2026-04-26 23:20 | 37.30722 | -6.97957 | 40051 ft | 497 kts | 49° |
| 2026-04-26 23:21 | 37.35162 | -6.91294 | 40050 ft | 497 kts | 49° |
| 2026-04-26 23:21 | 37.39590 | -6.84619 | 40053 ft | 497 kts | 49° |
| 2026-04-26 23:22 | 37.44011 | -6.77951 | 40050 ft | 496 kts | 49° |
| 2026-04-26 23:22 | 37.48427 | -6.71272 | 40052 ft | 496 kts | 49° |
| 2026-04-26 23:23 | 37.52841 | -6.64584 | 40060 ft | 497 kts | 49° |
| 2026-04-26 23:23 | 37.57257 | -6.57878 | 40057 ft | 497 kts | 49° |
| 2026-04-26 23:24 | 37.61665 | -6.51172 | 40059 ft | 496 kts | 49° |
| 2026-04-26 23:24 | 37.66067 | -6.44461 | 40063 ft | 495 kts | 49° |
| 2026-04-26 23:25 | 37.70450 | -6.37765 | 40067 ft | 495 kts | 49° |
| 2026-04-26 23:25 | 37.74830 | -6.31059 | 40065 ft | 495 kts | 49° |
| 2026-04-26 23:26 | 37.79206 | -6.24347 | 40065 ft | 495 kts | 50° |
| 2026-04-26 23:26 | 37.83584 | -6.17617 | 40072 ft | 495 kts | 50° |
| 2026-04-26 23:27 | 37.87944 | -6.10900 | 40072 ft | 494 kts | 50° |
| 2026-04-26 23:27 | 37.92293 | -6.04189 | 40072 ft | 492 kts | 50° |
| 2026-04-26 23:28 | 37.97234 | -5.98216 | 40093 ft | 488 kts | 30° |
| 2026-04-26 23:28 | 38.03000 | -5.93630 | 40073 ft | 489 kts | 30° |
| 2026-04-26 23:29 | 38.08759 | -5.89031 | 40077 ft | 489 kts | 31° |
| 2026-04-26 23:29 | 38.14508 | -5.84430 | 40079 ft | 488 kts | 31° |
| 2026-04-26 23:30 | 38.20253 | -5.79827 | 40080 ft | 488 kts | 31° |
| 2026-04-26 23:30 | 38.25994 | -5.75215 | 40078 ft | 489 kts | 31° |
| 2026-04-26 23:31 | 38.31747 | -5.70588 | 40079 ft | 488 kts | 31° |
| 2026-04-26 23:31 | 38.36545 | -5.66720 | 40082 ft | 488 kts | 31° |
| 2026-04-26 23:32 | 38.42282 | -5.62089 | 40081 ft | 488 kts | 31° |
| 2026-04-26 23:32 | 38.48014 | -5.57452 | 40079 ft | 489 kts | 31° |
| 2026-04-26 23:33 | 38.53760 | -5.52795 | 40077 ft | 489 kts | 31° |
| 2026-04-26 23:33 | 38.59492 | -5.48140 | 40064 ft | 488 kts | 31° |
| 2026-04-26 23:34 | 38.65217 | -5.43483 | 40066 ft | 488 kts | 31° |
| 2026-04-26 23:34 | 38.70950 | -5.38810 | 40064 ft | 488 kts | 31° |
| 2026-04-26 23:35 | 38.76664 | -5.34143 | 40074 ft | 488 kts | 31° |
| 2026-04-26 23:35 | 38.82397 | -5.29452 | 40078 ft | 488 kts | 31° |
| 2026-04-26 23:35 | 38.85258 | -5.27107 | 39917 ft | 486 kts | 31° |
| 2026-04-26 23:36 | 38.88114 | -5.24765 | 39328 ft | 488 kts | 31° |
| 2026-04-26 23:36 | 38.90975 | -5.22416 | 38917 ft | 487 kts | 31° |
| 2026-04-26 23:36 | 38.93769 | -5.20119 | 38671 ft | 480 kts | 31° |
| 2026-04-26 23:36 | 38.96562 | -5.17821 | 38251 ft | 477 kts | 31° |
| 2026-04-26 23:37 | 38.99199 | -5.15249 | 37890 ft | 474 kts | 43° |
| 2026-04-26 23:37 | 39.01366 | -5.12069 | 37487 ft | 472 kts | 55° |
| 2026-04-26 23:37 | 39.03126 | -5.08522 | 37057 ft | 470 kts | 57° |
| 2026-04-26 23:37 | 39.04838 | -5.04971 | 36701 ft | 466 kts | 57° |
| 2026-04-26 23:38 | 39.06532 | -5.01437 | 36334 ft | 462 kts | 57° |
| 2026-04-26 23:38 | 39.08214 | -4.97933 | 35975 ft | 459 kts | 57° |
| 2026-04-26 23:38 | 39.09888 | -4.94454 | 35622 ft | 455 kts | 57° |
| 2026-04-26 23:38 | 39.11548 | -4.90997 | 35268 ft | 452 kts | 57° |
| 2026-04-26 23:39 | 39.13189 | -4.87569 | 34919 ft | 449 kts | 57° |
| 2026-04-26 23:39 | 39.14821 | -4.84156 | 34588 ft | 445 kts | 57° |
| 2026-04-26 23:39 | 39.16440 | -4.80771 | 34254 ft | 442 kts | 57° |
| 2026-04-26 23:39 | 39.18048 | -4.77408 | 33879 ft | 439 kts | 57° |
| 2026-04-26 23:40 | 39.19791 | -4.74163 | 33489 ft | 433 kts | 46° |
| 2026-04-26 23:40 | 39.21876 | -4.71384 | 33031 ft | 430 kts | 43° |
| 2026-04-26 23:40 | 39.23963 | -4.68698 | 32639 ft | 427 kts | 43° |
| 2026-04-26 23:40 | 39.26062 | -4.66001 | 32259 ft | 425 kts | 43° |
| 2026-04-26 23:41 | 39.28145 | -4.63303 | 31851 ft | 422 kts | 43° |
| 2026-04-26 23:41 | 39.30192 | -4.60643 | 31482 ft | 420 kts | 43° |
| 2026-04-26 23:41 | 39.32265 | -4.57955 | 31104 ft | 417 kts | 43° |
| 2026-04-26 23:41 | 39.34303 | -4.55314 | 30745 ft | 415 kts | 43° |
| 2026-04-26 23:42 | 39.36331 | -4.52682 | 30366 ft | 412 kts | 44° |
| 2026-04-26 23:42 | 39.40378 | -4.47415 | 29522 ft | 408 kts | 44° |
| 2026-04-26 23:42 | 39.42370 | -4.44823 | 29126 ft | 405 kts | 44° |
| 2026-04-26 23:43 | 39.44347 | -4.42245 | 28701 ft | 402 kts | 44° |
| 2026-04-26 23:43 | 39.46310 | -4.39685 | 28289 ft | 400 kts | 44° |
| 2026-04-26 23:43 | 39.48266 | -4.37132 | 27892 ft | 397 kts | 44° |
| 2026-04-26 23:43 | 39.50199 | -4.34607 | 27478 ft | 395 kts | 44° |